Ticket #15634: drumlish.gpx

File drumlish.gpx, 86.0 KB (added by anonymous, 19 months ago)

screenshot

Line 
1<?xml version="1.0" encoding="UTF-8" standalone="yes" ?>
2<gpx
3 xmlns="http://www.topografix.com/GPX/1/1"
4 creator= "A-GPS Tracker1.7"
5 version= "1.1"
6 xmlns:xsi="http://www.w3.org/2001/XMLSchema-instance"
7 xsi:schemaLocation="http://www.topografix.com/GPX/1/1 http://www.topografix.com/GPX/1/1/gpx.xsd">
8<metadata>
9        <bounds minLat="53.7229357" minLon="-7.9135019" maxLat="53.9301103" maxLon="-7.59656"/>
10</metadata>
11<trk>
12        <name>drumlish</name>
13        <desc></desc>
14<trkseg>
15        <trkpt lat="53.72455210" lon="-7.78697900"><ele>46.0</ele><time>2017-12-01T10:16:39Z</time></trkpt>
16        <trkpt lat="53.72479900" lon="-7.78682060"><ele>46.8</ele><time>2017-12-01T10:17:51Z</time></trkpt>
17        <trkpt lat="53.72496170" lon="-7.78676210"><ele>46.1</ele><time>2017-12-01T10:17:55Z</time></trkpt>
18        <trkpt lat="53.72496980" lon="-7.78693840"><ele>44.8</ele><time>2017-12-01T10:18:00Z</time></trkpt>
19        <trkpt lat="53.72501970" lon="-7.78745880"><ele>44.3</ele><time>2017-12-01T10:18:06Z</time></trkpt>
20        <trkpt lat="53.72510750" lon="-7.78798410"><ele>44.7</ele><time>2017-12-01T10:18:11Z</time></trkpt>
21        <trkpt lat="53.72524220" lon="-7.78855600"><ele>45.4</ele><time>2017-12-01T10:18:16Z</time></trkpt>
22        <trkpt lat="53.72530830" lon="-7.78905160"><ele>46.4</ele><time>2017-12-01T10:18:20Z</time></trkpt>
23        <trkpt lat="53.72538280" lon="-7.78999550"><ele>47.4</ele><time>2017-12-01T10:18:26Z</time></trkpt>
24        <trkpt lat="53.72561480" lon="-7.79112640"><ele>48.2</ele><time>2017-12-01T10:18:31Z</time></trkpt>
25        <trkpt lat="53.72586990" lon="-7.79230240"><ele>48.4</ele><time>2017-12-01T10:18:36Z</time></trkpt>
26        <trkpt lat="53.72645870" lon="-7.79574030"><ele>48.3</ele><time>2017-12-01T10:18:59Z</time></trkpt>
27        <trkpt lat="53.72651760" lon="-7.79604400"><ele>48.7</ele><time>2017-12-01T10:19:10Z</time></trkpt>
28        <trkpt lat="53.72639570" lon="-7.79760730"><ele>49.8</ele><time>2017-12-01T10:19:22Z</time></trkpt>
29        <trkpt lat="53.72601390" lon="-7.79833900"><ele>50.8</ele><time>2017-12-01T10:19:30Z</time></trkpt>
30        <trkpt lat="53.72595320" lon="-7.79899820"><ele>51.9</ele><time>2017-12-01T10:19:40Z</time></trkpt>
31        <trkpt lat="53.72669320" lon="-7.79997000"><ele>52.2</ele><time>2017-12-01T10:20:09Z</time></trkpt>
32        <trkpt lat="53.72704960" lon="-7.80029100"><ele>52.0</ele><time>2017-12-01T10:20:30Z</time></trkpt>
33        <trkpt lat="53.72720210" lon="-7.80044080"><ele>52.1</ele><time>2017-12-01T10:20:50Z</time></trkpt>
34        <trkpt lat="53.72762260" lon="-7.80065430"><ele>51.6</ele><time>2017-12-01T10:21:00Z</time></trkpt>
35        <trkpt lat="53.72819280" lon="-7.80099070"><ele>50.6</ele><time>2017-12-01T10:21:11Z</time></trkpt>
36        <trkpt lat="53.72855610" lon="-7.80119830"><ele>50.9</ele><time>2017-12-01T10:21:20Z</time></trkpt>
37        <trkpt lat="53.72896740" lon="-7.80140170"><ele>50.7</ele><time>2017-12-01T10:22:10Z</time></trkpt>
38        <trkpt lat="53.72957770" lon="-7.80168810"><ele>49.3</ele><time>2017-12-01T10:22:20Z</time></trkpt>
39        <trkpt lat="53.73041690" lon="-7.80210110"><ele>48.2</ele><time>2017-12-01T10:22:31Z</time></trkpt>
40        <trkpt lat="53.73088860" lon="-7.80157790"><ele>48.3</ele><time>2017-12-01T10:22:40Z</time></trkpt>
41        <trkpt lat="53.73158390" lon="-7.80071930"><ele>48.2</ele><time>2017-12-01T10:22:50Z</time></trkpt>
42        <trkpt lat="53.73292680" lon="-7.80073150"><ele>49.2</ele><time>2017-12-01T10:23:00Z</time></trkpt>
43        <trkpt lat="53.73431490" lon="-7.80072310"><ele>51.3</ele><time>2017-12-01T10:23:10Z</time></trkpt>
44        <trkpt lat="53.73551100" lon="-7.80064080"><ele>53.3</ele><time>2017-12-01T10:23:19Z</time></trkpt>
45        <trkpt lat="53.73704210" lon="-7.80061950"><ele>54.0</ele><time>2017-12-01T10:23:30Z</time></trkpt>
46        <trkpt lat="53.73812490" lon="-7.80111840"><ele>53.4</ele><time>2017-12-01T10:23:40Z</time></trkpt>
47        <trkpt lat="53.73808610" lon="-7.80277260"><ele>51.9</ele><time>2017-12-01T10:23:50Z</time></trkpt>
48        <trkpt lat="53.73768710" lon="-7.80505190"><ele>49.0</ele><time>2017-12-01T10:24:00Z</time></trkpt>
49        <trkpt lat="53.73741180" lon="-7.80706950"><ele>46.1</ele><time>2017-12-01T10:24:09Z</time></trkpt>
50        <trkpt lat="53.73700700" lon="-7.80997500"><ele>44.3</ele><time>2017-12-01T10:24:20Z</time></trkpt>
51        <trkpt lat="53.73661860" lon="-7.81267360"><ele>43.0</ele><time>2017-12-01T10:24:30Z</time></trkpt>
52        <trkpt lat="53.73625330" lon="-7.81539120"><ele>42.1</ele><time>2017-12-01T10:24:40Z</time></trkpt>
53        <trkpt lat="53.73586120" lon="-7.81811550"><ele>42.5</ele><time>2017-12-01T10:24:50Z</time></trkpt>
54        <trkpt lat="53.73551800" lon="-7.82041350"><ele>43.2</ele><time>2017-12-01T10:25:00Z</time></trkpt>
55        <trkpt lat="53.73595730" lon="-7.82085820"><ele>43.5</ele><time>2017-12-01T10:25:10Z</time></trkpt>
56        <trkpt lat="53.73716670" lon="-7.82191820"><ele>44.0</ele><time>2017-12-01T10:25:20Z</time></trkpt>
57        <trkpt lat="53.73856970" lon="-7.82361510"><ele>44.9</ele><time>2017-12-01T10:25:30Z</time></trkpt>
58        <trkpt lat="53.73993210" lon="-7.82529810"><ele>45.0</ele><time>2017-12-01T10:25:40Z</time></trkpt>
59        <trkpt lat="53.74108200" lon="-7.82680640"><ele>45.3</ele><time>2017-12-01T10:25:50Z</time></trkpt>
60        <trkpt lat="53.74142790" lon="-7.82725460"><ele>44.8</ele><time>2017-12-01T10:26:01Z</time></trkpt>
61        <trkpt lat="53.74186250" lon="-7.82767240"><ele>44.3</ele><time>2017-12-01T10:29:10Z</time></trkpt>
62        <trkpt lat="53.74284890" lon="-7.82902040"><ele>44.3</ele><time>2017-12-01T10:29:20Z</time></trkpt>
63        <trkpt lat="53.74337740" lon="-7.83028680"><ele>44.2</ele><time>2017-12-01T10:29:30Z</time></trkpt>
64        <trkpt lat="53.74380680" lon="-7.83072280"><ele>44.3</ele><time>2017-12-01T10:30:20Z</time></trkpt>
65        <trkpt lat="53.74507700" lon="-7.83115170"><ele>45.6</ele><time>2017-12-01T10:30:30Z</time></trkpt>
66        <trkpt lat="53.74671290" lon="-7.83157500"><ele>47.1</ele><time>2017-12-01T10:30:40Z</time></trkpt>
67        <trkpt lat="53.74816980" lon="-7.83139180"><ele>47.1</ele><time>2017-12-01T10:30:50Z</time></trkpt>
68        <trkpt lat="53.74858370" lon="-7.83067710"><ele>47.8</ele><time>2017-12-01T10:31:00Z</time></trkpt>
69        <trkpt lat="53.74893880" lon="-7.82860670"><ele>49.2</ele><time>2017-12-01T10:31:10Z</time></trkpt>
70        <trkpt lat="53.74956680" lon="-7.82642820"><ele>50.2</ele><time>2017-12-01T10:31:20Z</time></trkpt>
71        <trkpt lat="53.74947510" lon="-7.82559350"><ele>51.9</ele><time>2017-12-01T10:31:30Z</time></trkpt>
72        <trkpt lat="53.74939010" lon="-7.82550450"><ele>54.1</ele><time>2017-12-01T10:31:40Z</time></trkpt>
73        <trkpt lat="53.74903630" lon="-7.82488670"><ele>55.9</ele><time>2017-12-01T10:32:00Z</time></trkpt>
74        <trkpt lat="53.74870310" lon="-7.82422010"><ele>56.3</ele><time>2017-12-01T10:32:10Z</time></trkpt>
75        <trkpt lat="53.74801800" lon="-7.82302840"><ele>55.9</ele><time>2017-12-01T10:32:20Z</time></trkpt>
76        <trkpt lat="53.74690710" lon="-7.82202250"><ele>54.5</ele><time>2017-12-01T10:32:30Z</time></trkpt>
77        <trkpt lat="53.74625460" lon="-7.82104930"><ele>53.2</ele><time>2017-12-01T10:32:40Z</time></trkpt>
78        <trkpt lat="53.74678310" lon="-7.82012070"><ele>51.7</ele><time>2017-12-01T10:32:50Z</time></trkpt>
79        <trkpt lat="53.74737950" lon="-7.81817400"><ele>50.2</ele><time>2017-12-01T10:33:00Z</time></trkpt>
80        <trkpt lat="53.74797500" lon="-7.81595710"><ele>49.3</ele><time>2017-12-01T10:33:10Z</time></trkpt>
81        <trkpt lat="53.74867500" lon="-7.81444300"><ele>48.5</ele><time>2017-12-01T10:33:20Z</time></trkpt>
82        <trkpt lat="53.74925540" lon="-7.81327580"><ele>48.2</ele><time>2017-12-01T10:33:30Z</time></trkpt>
83        <trkpt lat="53.74997540" lon="-7.81433680"><ele>53.3</ele><time>2017-12-01T10:33:50Z</time></trkpt>
84        <trkpt lat="53.75092720" lon="-7.81581580"><ele>58.2</ele><time>2017-12-01T10:34:00Z</time></trkpt>
85        <trkpt lat="53.75099900" lon="-7.81634370"><ele>60.4</ele><time>2017-12-01T10:34:10Z</time></trkpt>
86        <trkpt lat="53.75108620" lon="-7.81645270"><ele>61.7</ele><time>2017-12-01T10:34:20Z</time></trkpt>
87        <trkpt lat="53.75110160" lon="-7.81660270"><ele>62.8</ele><time>2017-12-01T10:35:50Z</time></trkpt>
88        <trkpt lat="53.75109000" lon="-7.81642210"><ele>58.7</ele><time>2017-12-01T10:37:31Z</time></trkpt>
89        <trkpt lat="53.75088610" lon="-7.81590880"><ele>55.3</ele><time>2017-12-01T10:40:30Z</time></trkpt>
90        <trkpt lat="53.75118700" lon="-7.81614500"><ele>54.9</ele><time>2017-12-01T10:40:40Z</time></trkpt>
91        <trkpt lat="53.75221660" lon="-7.81774070"><ele>54.4</ele><time>2017-12-01T10:40:50Z</time></trkpt>
92        <trkpt lat="53.75362730" lon="-7.81986130"><ele>53.8</ele><time>2017-12-01T10:41:00Z</time></trkpt>
93        <trkpt lat="53.75527930" lon="-7.82245620"><ele>53.0</ele><time>2017-12-01T10:41:10Z</time></trkpt>
94        <trkpt lat="53.75716190" lon="-7.82456040"><ele>52.2</ele><time>2017-12-01T10:41:20Z</time></trkpt>
95        <trkpt lat="53.75888010" lon="-7.82714210"><ele>51.7</ele><time>2017-12-01T10:41:30Z</time></trkpt>
96        <trkpt lat="53.76017900" lon="-7.82915900"><ele>52.3</ele><time>2017-12-01T10:41:40Z</time></trkpt>
97        <trkpt lat="53.76139800" lon="-7.83075400"><ele>53.1</ele><time>2017-12-01T10:41:50Z</time></trkpt>
98        <trkpt lat="53.76263690" lon="-7.83239100"><ele>53.2</ele><time>2017-12-01T10:42:01Z</time></trkpt>
99        <trkpt lat="53.76308500" lon="-7.83350280"><ele>54.8</ele><time>2017-12-01T10:42:10Z</time></trkpt>
100        <trkpt lat="53.76018640" lon="-7.83436020"><ele>56.4</ele><time>2017-12-01T10:42:32Z</time></trkpt>
101        <trkpt lat="53.75674340" lon="-7.83552740"><ele>57.4</ele><time>2017-12-01T10:43:02Z</time></trkpt>
102        <trkpt lat="53.75681220" lon="-7.83493560"><ele>58.0</ele><time>2017-12-01T10:43:12Z</time></trkpt>
103        <trkpt lat="53.75690710" lon="-7.83492010"><ele>58.9</ele><time>2017-12-01T10:43:52Z</time></trkpt>
104        <trkpt lat="53.75680310" lon="-7.83511920"><ele>57.8</ele><time>2017-12-01T10:47:22Z</time></trkpt>
105        <trkpt lat="53.75674360" lon="-7.83535610"><ele>56.1</ele><time>2017-12-01T10:47:32Z</time></trkpt>
106        <trkpt lat="53.75695630" lon="-7.83563910"><ele>54.8</ele><time>2017-12-01T10:47:42Z</time></trkpt>
107        <trkpt lat="53.75819760" lon="-7.83479510"><ele>54.1</ele><time>2017-12-01T10:47:52Z</time></trkpt>
108        <trkpt lat="53.75960010" lon="-7.83434720"><ele>54.0</ele><time>2017-12-01T10:48:02Z</time></trkpt>
109        <trkpt lat="53.76140450" lon="-7.83445330"><ele>53.8</ele><time>2017-12-01T10:48:12Z</time></trkpt>
110        <trkpt lat="53.76277480" lon="-7.83381440"><ele>53.2</ele><time>2017-12-01T10:48:21Z</time></trkpt>
111        <trkpt lat="53.76477130" lon="-7.83759240"><ele>50.7</ele><time>2017-12-01T10:48:53Z</time></trkpt>
112        <trkpt lat="53.76463760" lon="-7.83934130"><ele>48.1</ele><time>2017-12-01T10:49:03Z</time></trkpt>
113        <trkpt lat="53.76392830" lon="-7.83973330"><ele>46.0</ele><time>2017-12-01T10:49:14Z</time></trkpt>
114        <trkpt lat="53.76390120" lon="-7.84020630"><ele>44.0</ele><time>2017-12-01T10:49:23Z</time></trkpt>
115        <trkpt lat="53.76394970" lon="-7.84036970"><ele>43.5</ele><time>2017-12-01T10:51:03Z</time></trkpt>
116        <trkpt lat="53.76391180" lon="-7.84021870"><ele>45.0</ele><time>2017-12-01T10:51:53Z</time></trkpt>
117        <trkpt lat="53.76374930" lon="-7.84001150"><ele>47.0</ele><time>2017-12-01T10:52:03Z</time></trkpt>
118        <trkpt lat="53.76424720" lon="-7.83991230"><ele>49.4</ele><time>2017-12-01T10:52:13Z</time></trkpt>
119        <trkpt lat="53.76487140" lon="-7.83852240"><ele>52.9</ele><time>2017-12-01T10:52:33Z</time></trkpt>
120        <trkpt lat="53.76459840" lon="-7.83698850"><ele>55.5</ele><time>2017-12-01T10:52:44Z</time></trkpt>
121        <trkpt lat="53.76443840" lon="-7.83631360"><ele>58.0</ele><time>2017-12-01T10:52:53Z</time></trkpt>
122        <trkpt lat="53.76534350" lon="-7.83579670"><ele>59.9</ele><time>2017-12-01T10:53:03Z</time></trkpt>
123        <trkpt lat="53.76645340" lon="-7.83507640"><ele>61.3</ele><time>2017-12-01T10:53:15Z</time></trkpt>
124        <trkpt lat="53.76676120" lon="-7.83452240"><ele>61.6</ele><time>2017-12-01T10:53:34Z</time></trkpt>
125        <trkpt lat="53.76627580" lon="-7.83283510"><ele>61.5</ele><time>2017-12-01T10:53:45Z</time></trkpt>
126        <trkpt lat="53.76511680" lon="-7.82961600"><ele>60.8</ele><time>2017-12-01T10:54:05Z</time></trkpt>
127        <trkpt lat="53.76506680" lon="-7.82828060"><ele>60.4</ele><time>2017-12-01T10:54:15Z</time></trkpt>
128        <trkpt lat="53.76452050" lon="-7.82421850"><ele>59.9</ele><time>2017-12-01T10:54:35Z</time></trkpt>
129        <trkpt lat="53.76483450" lon="-7.82206660"><ele>59.3</ele><time>2017-12-01T10:54:44Z</time></trkpt>
130        <trkpt lat="53.76478980" lon="-7.81943300"><ele>59.5</ele><time>2017-12-01T10:54:55Z</time></trkpt>
131        <trkpt lat="53.76455020" lon="-7.81658000"><ele>60.7</ele><time>2017-12-01T10:55:05Z</time></trkpt>
132        <trkpt lat="53.76442140" lon="-7.81396600"><ele>61.4</ele><time>2017-12-01T10:55:14Z</time></trkpt>
133        <trkpt lat="53.76483020" lon="-7.81173130"><ele>62.4</ele><time>2017-12-01T10:55:24Z</time></trkpt>
134        <trkpt lat="53.76493120" lon="-7.80930500"><ele>63.2</ele><time>2017-12-01T10:55:35Z</time></trkpt>
135        <trkpt lat="53.76477580" lon="-7.80636190"><ele>63.1</ele><time>2017-12-01T10:55:45Z</time></trkpt>
136        <trkpt lat="53.76468820" lon="-7.80393840"><ele>63.1</ele><time>2017-12-01T10:55:54Z</time></trkpt>
137        <trkpt lat="53.76470570" lon="-7.80184130"><ele>62.9</ele><time>2017-12-01T10:56:05Z</time></trkpt>
138        <trkpt lat="53.76466410" lon="-7.80313040"><ele>62.1</ele><time>2017-12-01T10:56:25Z</time></trkpt>
139        <trkpt lat="53.76470480" lon="-7.80596810"><ele>62.1</ele><time>2017-12-01T10:56:35Z</time></trkpt>
140        <trkpt lat="53.76477850" lon="-7.80683740"><ele>62.9</ele><time>2017-12-01T10:56:45Z</time></trkpt>
141        <trkpt lat="53.76491550" lon="-7.80674730"><ele>62.9</ele><time>2017-12-01T10:56:55Z</time></trkpt>
142        <trkpt lat="53.76543840" lon="-7.80636880"><ele>63.3</ele><time>2017-12-01T10:57:05Z</time></trkpt>
143        <trkpt lat="53.76594340" lon="-7.80706780"><ele>63.8</ele><time>2017-12-01T10:57:15Z</time></trkpt>
144        <trkpt lat="53.76600090" lon="-7.80744050"><ele>64.3</ele><time>2017-12-01T10:57:25Z</time></trkpt>
145        <trkpt lat="53.76603840" lon="-7.80717450"><ele>64.4</ele><time>2017-12-01T11:00:55Z</time></trkpt>
146        <trkpt lat="53.76560730" lon="-7.80657730"><ele>64.8</ele><time>2017-12-01T11:01:05Z</time></trkpt>
147        <trkpt lat="53.76496230" lon="-7.80659090"><ele>64.5</ele><time>2017-12-01T11:01:15Z</time></trkpt>
148        <trkpt lat="53.76480230" lon="-7.80658060"><ele>64.0</ele><time>2017-12-01T11:01:25Z</time></trkpt>
149        <trkpt lat="53.76472580" lon="-7.80476840"><ele>64.2</ele><time>2017-12-01T11:01:35Z</time></trkpt>
150        <trkpt lat="53.76470450" lon="-7.80211460"><ele>64.6</ele><time>2017-12-01T11:01:45Z</time></trkpt>
151        <trkpt lat="53.76470420" lon="-7.79907710"><ele>65.6</ele><time>2017-12-01T11:01:55Z</time></trkpt>
152        <trkpt lat="53.76468700" lon="-7.79634250"><ele>66.1</ele><time>2017-12-01T11:02:05Z</time></trkpt>
153        <trkpt lat="53.76464790" lon="-7.79421660"><ele>66.6</ele><time>2017-12-01T11:02:15Z</time></trkpt>
154        <trkpt lat="53.76470880" lon="-7.79399310"><ele>65.4</ele><time>2017-12-01T11:02:24Z</time></trkpt>
155        <trkpt lat="53.76564550" lon="-7.79410240"><ele>64.5</ele><time>2017-12-01T11:02:35Z</time></trkpt>
156        <trkpt lat="53.76692520" lon="-7.79444360"><ele>64.2</ele><time>2017-12-01T11:02:45Z</time></trkpt>
157        <trkpt lat="53.76836640" lon="-7.79485900"><ele>65.5</ele><time>2017-12-01T11:02:54Z</time></trkpt>
158        <trkpt lat="53.77020850" lon="-7.79523860"><ele>68.3</ele><time>2017-12-01T11:03:04Z</time></trkpt>
159        <trkpt lat="53.77202550" lon="-7.79568020"><ele>73.1</ele><time>2017-12-01T11:03:15Z</time></trkpt>
160        <trkpt lat="53.77366720" lon="-7.79592040"><ele>77.7</ele><time>2017-12-01T11:03:25Z</time></trkpt>
161        <trkpt lat="53.77456490" lon="-7.79735970"><ele>82.3</ele><time>2017-12-01T11:03:36Z</time></trkpt>
162        <trkpt lat="53.77901950" lon="-7.80380230"><ele>86.8</ele><time>2017-12-01T11:04:15Z</time></trkpt>
163        <trkpt lat="53.78084420" lon="-7.80586960"><ele>90.5</ele><time>2017-12-01T11:04:35Z</time></trkpt>
164        <trkpt lat="53.78151840" lon="-7.80684290"><ele>93.9</ele><time>2017-12-01T11:04:45Z</time></trkpt>
165        <trkpt lat="53.78244680" lon="-7.80881960"><ele>96.9</ele><time>2017-12-01T11:04:55Z</time></trkpt>
166        <trkpt lat="53.78318490" lon="-7.81054790"><ele>99.4</ele><time>2017-12-01T11:05:05Z</time></trkpt>
167        <trkpt lat="53.78325490" lon="-7.81129280"><ele>100.7</ele><time>2017-12-01T11:05:15Z</time></trkpt>
168        <trkpt lat="53.78321550" lon="-7.81143520"><ele>100.8</ele><time>2017-12-01T11:05:35Z</time></trkpt>
169        <trkpt lat="53.78321650" lon="-7.81122400"><ele>99.3</ele><time>2017-12-01T11:08:45Z</time></trkpt>
170        <trkpt lat="53.78315060" lon="-7.81098850"><ele>97.9</ele><time>2017-12-01T11:08:55Z</time></trkpt>
171        <trkpt lat="53.78294270" lon="-7.80998350"><ele>96.1</ele><time>2017-12-01T11:09:05Z</time></trkpt>
172        <trkpt lat="53.78237000" lon="-7.80864790"><ele>93.9</ele><time>2017-12-01T11:09:15Z</time></trkpt>
173        <trkpt lat="53.78150170" lon="-7.80693850"><ele>91.6</ele><time>2017-12-01T11:09:25Z</time></trkpt>
174        <trkpt lat="53.78084970" lon="-7.80576810"><ele>89.3</ele><time>2017-12-01T11:09:35Z</time></trkpt>
175        <trkpt lat="53.78035630" lon="-7.80670390"><ele>86.1</ele><time>2017-12-01T11:09:45Z</time></trkpt>
176        <trkpt lat="53.77920200" lon="-7.80870060"><ele>82.9</ele><time>2017-12-01T11:09:55Z</time></trkpt>
177        <trkpt lat="53.77806520" lon="-7.80968590"><ele>79.6</ele><time>2017-12-01T11:10:05Z</time></trkpt>
178        <trkpt lat="53.77696100" lon="-7.81096840"><ele>76.7</ele><time>2017-12-01T11:10:15Z</time></trkpt>
179        <trkpt lat="53.77597740" lon="-7.81304670"><ele>73.9</ele><time>2017-12-01T11:10:25Z</time></trkpt>
180        <trkpt lat="53.77508950" lon="-7.81480020"><ele>71.9</ele><time>2017-12-01T11:10:35Z</time></trkpt>
181        <trkpt lat="53.77563700" lon="-7.81568640"><ele>69.7</ele><time>2017-12-01T11:10:45Z</time></trkpt>
182        <trkpt lat="53.77683070" lon="-7.81719750"><ele>68.2</ele><time>2017-12-01T11:10:55Z</time></trkpt>
183        <trkpt lat="53.77766370" lon="-7.81919520"><ele>66.6</ele><time>2017-12-01T11:11:05Z</time></trkpt>
184        <trkpt lat="53.77813350" lon="-7.82159520"><ele>65.1</ele><time>2017-12-01T11:11:15Z</time></trkpt>
185        <trkpt lat="53.77863480" lon="-7.82357210"><ele>63.3</ele><time>2017-12-01T11:11:25Z</time></trkpt>
186        <trkpt lat="53.77910580" lon="-7.82564150"><ele>62.6</ele><time>2017-12-01T11:11:35Z</time></trkpt>
187        <trkpt lat="53.77982560" lon="-7.82749970"><ele>61.9</ele><time>2017-12-01T11:11:45Z</time></trkpt>
188        <trkpt lat="53.78030630" lon="-7.82912840"><ele>61.2</ele><time>2017-12-01T11:11:56Z</time></trkpt>
189        <trkpt lat="53.78086230" lon="-7.83045480"><ele>61.4</ele><time>2017-12-01T11:12:05Z</time></trkpt>
190        <trkpt lat="53.78177790" lon="-7.83217920"><ele>61.4</ele><time>2017-12-01T11:12:15Z</time></trkpt>
191        <trkpt lat="53.78250020" lon="-7.83409890"><ele>60.9</ele><time>2017-12-01T11:12:25Z</time></trkpt>
192        <trkpt lat="53.78285460" lon="-7.83548790"><ele>60.7</ele><time>2017-12-01T11:12:35Z</time></trkpt>
193        <trkpt lat="53.78259870" lon="-7.83608560"><ele>60.8</ele><time>2017-12-01T11:12:45Z</time></trkpt>
194        <trkpt lat="53.78238790" lon="-7.83615340"><ele>59.9</ele><time>2017-12-01T11:12:55Z</time></trkpt>
195        <trkpt lat="53.78233140" lon="-7.83633010"><ele>59.0</ele><time>2017-12-01T11:13:15Z</time></trkpt>
196        <trkpt lat="53.78252110" lon="-7.83694870"><ele>57.6</ele><time>2017-12-01T11:13:25Z</time></trkpt>
197        <trkpt lat="53.78342280" lon="-7.83812270"><ele>55.2</ele><time>2017-12-01T11:13:35Z</time></trkpt>
198        <trkpt lat="53.78446300" lon="-7.83983310"><ele>52.1</ele><time>2017-12-01T11:13:45Z</time></trkpt>
199        <trkpt lat="53.78569950" lon="-7.84192190"><ele>49.3</ele><time>2017-12-01T11:13:55Z</time></trkpt>
200        <trkpt lat="53.78702110" lon="-7.84423990"><ele>47.1</ele><time>2017-12-01T11:14:05Z</time></trkpt>
201        <trkpt lat="53.78788280" lon="-7.84737770"><ele>44.9</ele><time>2017-12-01T11:14:15Z</time></trkpt>
202        <trkpt lat="53.78836780" lon="-7.85069480"><ele>43.1</ele><time>2017-12-01T11:14:25Z</time></trkpt>
203        <trkpt lat="53.78873020" lon="-7.85419210"><ele>41.8</ele><time>2017-12-01T11:14:35Z</time></trkpt>
204        <trkpt lat="53.78955000" lon="-7.85729070"><ele>41.3</ele><time>2017-12-01T11:14:45Z</time></trkpt>
205        <trkpt lat="53.79078400" lon="-7.85977380"><ele>40.5</ele><time>2017-12-01T11:14:55Z</time></trkpt>
206        <trkpt lat="53.79210330" lon="-7.86228060"><ele>40.9</ele><time>2017-12-01T11:15:05Z</time></trkpt>
207        <trkpt lat="53.79342410" lon="-7.86557350"><ele>41.2</ele><time>2017-12-01T11:15:15Z</time></trkpt>
208        <trkpt lat="53.79487830" lon="-7.86924930"><ele>41.8</ele><time>2017-12-01T11:15:25Z</time></trkpt>
209        <trkpt lat="53.79642170" lon="-7.87259080"><ele>42.4</ele><time>2017-12-01T11:15:35Z</time></trkpt>
210        <trkpt lat="53.79840190" lon="-7.87460930"><ele>43.8</ele><time>2017-12-01T11:15:45Z</time></trkpt>
211        <trkpt lat="53.80055140" lon="-7.87626620"><ele>44.8</ele><time>2017-12-01T11:15:55Z</time></trkpt>
212        <trkpt lat="53.80256990" lon="-7.87809810"><ele>46.4</ele><time>2017-12-01T11:16:05Z</time></trkpt>
213        <trkpt lat="53.80427380" lon="-7.87959760"><ele>47.1</ele><time>2017-12-01T11:16:14Z</time></trkpt>
214        <trkpt lat="53.80608680" lon="-7.88222620"><ele>47.6</ele><time>2017-12-01T11:16:25Z</time></trkpt>
215        <trkpt lat="53.80734970" lon="-7.88509470"><ele>47.6</ele><time>2017-12-01T11:16:35Z</time></trkpt>
216        <trkpt lat="53.80854660" lon="-7.88764530"><ele>47.2</ele><time>2017-12-01T11:16:44Z</time></trkpt>
217        <trkpt lat="53.81031960" lon="-7.89015290"><ele>46.9</ele><time>2017-12-01T11:16:55Z</time></trkpt>
218        <trkpt lat="53.81199020" lon="-7.89246220"><ele>47.2</ele><time>2017-12-01T11:17:05Z</time></trkpt>
219        <trkpt lat="53.81388800" lon="-7.89524730"><ele>46.8</ele><time>2017-12-01T11:17:15Z</time></trkpt>
220        <trkpt lat="53.81581440" lon="-7.89877260"><ele>46.9</ele><time>2017-12-01T11:17:25Z</time></trkpt>
221        <trkpt lat="53.81751710" lon="-7.90230350"><ele>46.9</ele><time>2017-12-01T11:17:35Z</time></trkpt>
222        <trkpt lat="53.81907470" lon="-7.90513580"><ele>47.0</ele><time>2017-12-01T11:17:45Z</time></trkpt>
223        <trkpt lat="53.82019170" lon="-7.90670870"><ele>47.6</ele><time>2017-12-01T11:17:55Z</time></trkpt>
224        <trkpt lat="53.82053260" lon="-7.90873410"><ele>49.3</ele><time>2017-12-01T11:18:05Z</time></trkpt>
225        <trkpt lat="53.82116680" lon="-7.91133650"><ele>50.9</ele><time>2017-12-01T11:18:15Z</time></trkpt>
226        <trkpt lat="53.82163630" lon="-7.91332070"><ele>52.3</ele><time>2017-12-01T11:18:25Z</time></trkpt>
227        <trkpt lat="53.82122700" lon="-7.91332010"><ele>53.6</ele><time>2017-12-01T11:18:35Z</time></trkpt>
228        <trkpt lat="53.82113970" lon="-7.91323120"><ele>54.2</ele><time>2017-12-01T11:18:55Z</time></trkpt>
229        <trkpt lat="53.82144000" lon="-7.91337790"><ele>54.1</ele><time>2017-12-01T11:22:45Z</time></trkpt>
230        <trkpt lat="53.82161350" lon="-7.91350190"><ele>52.4</ele><time>2017-12-01T11:22:55Z</time></trkpt>
231        <trkpt lat="53.82151880" lon="-7.91256100"><ele>51.0</ele><time>2017-12-01T11:23:13Z</time></trkpt>
232        <trkpt lat="53.82113380" lon="-7.91096610"><ele>49.6</ele><time>2017-12-01T11:23:22Z</time></trkpt>
233        <trkpt lat="53.82060500" lon="-7.90877710"><ele>47.8</ele><time>2017-12-01T11:23:32Z</time></trkpt>
234        <trkpt lat="53.82085150" lon="-7.90668310"><ele>45.5</ele><time>2017-12-01T11:23:53Z</time></trkpt>
235        <trkpt lat="53.82013110" lon="-7.90630690"><ele>44.9</ele><time>2017-12-01T11:24:02Z</time></trkpt>
236        <trkpt lat="53.81896180" lon="-7.90477070"><ele>44.6</ele><time>2017-12-01T11:24:12Z</time></trkpt>
237        <trkpt lat="53.81590100" lon="-7.89876160"><ele>44.3</ele><time>2017-12-01T11:24:32Z</time></trkpt>
238        <trkpt lat="53.81376080" lon="-7.89496240"><ele>45.5</ele><time>2017-12-01T11:24:42Z</time></trkpt>
239        <trkpt lat="53.81169760" lon="-7.89199040"><ele>46.8</ele><time>2017-12-01T11:24:52Z</time></trkpt>
240        <trkpt lat="53.80758380" lon="-7.88554540"><ele>47.2</ele><time>2017-12-01T11:25:13Z</time></trkpt>
241        <trkpt lat="53.80626700" lon="-7.88240170"><ele>46.9</ele><time>2017-12-01T11:25:22Z</time></trkpt>
242        <trkpt lat="53.80441520" lon="-7.87960660"><ele>46.7</ele><time>2017-12-01T11:25:32Z</time></trkpt>
243        <trkpt lat="53.80218810" lon="-7.87760090"><ele>45.4</ele><time>2017-12-01T11:25:42Z</time></trkpt>
244        <trkpt lat="53.79980060" lon="-7.87553460"><ele>44.7</ele><time>2017-12-01T11:25:52Z</time></trkpt>
245        <trkpt lat="53.79737580" lon="-7.87373110"><ele>44.0</ele><time>2017-12-01T11:26:02Z</time></trkpt>
246        <trkpt lat="53.79558140" lon="-7.87078700"><ele>43.8</ele><time>2017-12-01T11:26:12Z</time></trkpt>
247        <trkpt lat="53.79418760" lon="-7.86722790"><ele>43.0</ele><time>2017-12-01T11:26:22Z</time></trkpt>
248        <trkpt lat="53.78836960" lon="-7.85023950"><ele>41.7</ele><time>2017-12-01T11:27:13Z</time></trkpt>
249        <trkpt lat="53.78752280" lon="-7.84443350"><ele>41.3</ele><time>2017-12-01T11:27:33Z</time></trkpt>
250        <trkpt lat="53.78732260" lon="-7.84227560"><ele>41.1</ele><time>2017-12-01T11:27:42Z</time></trkpt>
251        <trkpt lat="53.78701140" lon="-7.83894230"><ele>41.7</ele><time>2017-12-01T11:28:03Z</time></trkpt>
252        <trkpt lat="53.78620790" lon="-7.83704050"><ele>43.4</ele><time>2017-12-01T11:28:13Z</time></trkpt>
253        <trkpt lat="53.78597600" lon="-7.83605440"><ele>45.5</ele><time>2017-12-01T11:28:23Z</time></trkpt>
254        <trkpt lat="53.78678320" lon="-7.83529610"><ele>47.0</ele><time>2017-12-01T11:28:32Z</time></trkpt>
255        <trkpt lat="53.78841900" lon="-7.83403700"><ele>48.0</ele><time>2017-12-01T11:28:43Z</time></trkpt>
256        <trkpt lat="53.78941360" lon="-7.83414860"><ele>47.2</ele><time>2017-12-01T11:28:52Z</time></trkpt>
257        <trkpt lat="53.79083790" lon="-7.83536950"><ele>44.9</ele><time>2017-12-01T11:29:02Z</time></trkpt>
258        <trkpt lat="53.79228570" lon="-7.83670700"><ele>45.5</ele><time>2017-12-01T11:29:12Z</time></trkpt>
259        <trkpt lat="53.79342280" lon="-7.83773720"><ele>46.2</ele><time>2017-12-01T11:29:22Z</time></trkpt>
260        <trkpt lat="53.79403110" lon="-7.83829970"><ele>46.4</ele><time>2017-12-01T11:29:32Z</time></trkpt>
261        <trkpt lat="53.79357870" lon="-7.83780460"><ele>47.3</ele><time>2017-12-01T11:29:52Z</time></trkpt>
262        <trkpt lat="53.79458780" lon="-7.83872930"><ele>49.0</ele><time>2017-12-01T11:33:12Z</time></trkpt>
263        <trkpt lat="53.79616410" lon="-7.84011790"><ele>48.0</ele><time>2017-12-01T11:33:22Z</time></trkpt>
264        <trkpt lat="53.79788050" lon="-7.84150810"><ele>47.5</ele><time>2017-12-01T11:33:32Z</time></trkpt>
265        <trkpt lat="53.79943370" lon="-7.84265030"><ele>47.3</ele><time>2017-12-01T11:33:42Z</time></trkpt>
266        <trkpt lat="53.80074230" lon="-7.84366960"><ele>47.0</ele><time>2017-12-01T11:33:52Z</time></trkpt>
267        <trkpt lat="53.80156240" lon="-7.84431200"><ele>46.6</ele><time>2017-12-01T11:34:02Z</time></trkpt>
268        <trkpt lat="53.80206140" lon="-7.84320410"><ele>46.4</ele><time>2017-12-01T11:34:12Z</time></trkpt>
269        <trkpt lat="53.80259250" lon="-7.84126820"><ele>45.5</ele><time>2017-12-01T11:34:22Z</time></trkpt>
270        <trkpt lat="53.80275930" lon="-7.83897350"><ele>45.5</ele><time>2017-12-01T11:34:32Z</time></trkpt>
271        <trkpt lat="53.80319970" lon="-7.83693580"><ele>46.3</ele><time>2017-12-01T11:34:42Z</time></trkpt>
272        <trkpt lat="53.80345550" lon="-7.83474310"><ele>47.5</ele><time>2017-12-01T11:34:52Z</time></trkpt>
273        <trkpt lat="53.80365120" lon="-7.83326560"><ele>47.8</ele><time>2017-12-01T11:35:02Z</time></trkpt>
274        <trkpt lat="53.80299510" lon="-7.83275370"><ele>51.1</ele><time>2017-12-01T11:35:12Z</time></trkpt>
275        <trkpt lat="53.80262860" lon="-7.83267010"><ele>54.0</ele><time>2017-12-01T11:35:22Z</time></trkpt>
276        <trkpt lat="53.80277150" lon="-7.83264440"><ele>55.5</ele><time>2017-12-01T11:35:32Z</time></trkpt>
277        <trkpt lat="53.80314740" lon="-7.83289130"><ele>56.0</ele><time>2017-12-01T11:35:42Z</time></trkpt>
278        <trkpt lat="53.80320950" lon="-7.83301350"><ele>56.5</ele><time>2017-12-01T11:38:22Z</time></trkpt>
279        <trkpt lat="53.80330190" lon="-7.83302100"><ele>53.9</ele><time>2017-12-01T11:38:42Z</time></trkpt>
280        <trkpt lat="53.80369170" lon="-7.83329920"><ele>51.6</ele><time>2017-12-01T11:38:52Z</time></trkpt>
281        <trkpt lat="53.80443810" lon="-7.83384090"><ele>49.8</ele><time>2017-12-01T11:39:02Z</time></trkpt>
282        <trkpt lat="53.80484850" lon="-7.83419550"><ele>48.7</ele><time>2017-12-01T11:39:13Z</time></trkpt>
283        <trkpt lat="53.80466690" lon="-7.83399510"><ele>49.2</ele><time>2017-12-01T11:42:12Z</time></trkpt>
284        <trkpt lat="53.80417390" lon="-7.83365400"><ele>48.5</ele><time>2017-12-01T11:42:22Z</time></trkpt>
285        <trkpt lat="53.80374430" lon="-7.83283000"><ele>47.1</ele><time>2017-12-01T11:42:42Z</time></trkpt>
286        <trkpt lat="53.80395150" lon="-7.82929710"><ele>46.1</ele><time>2017-12-01T11:43:03Z</time></trkpt>
287        <trkpt lat="53.80387390" lon="-7.82808840"><ele>46.0</ele><time>2017-12-01T11:43:22Z</time></trkpt>
288        <trkpt lat="53.80374810" lon="-7.83204180"><ele>46.1</ele><time>2017-12-01T11:44:03Z</time></trkpt>
289        <trkpt lat="53.80366970" lon="-7.83295470"><ele>47.5</ele><time>2017-12-01T11:44:13Z</time></trkpt>
290        <trkpt lat="53.80365950" lon="-7.83331000"><ele>48.8</ele><time>2017-12-01T11:44:23Z</time></trkpt>
291        <trkpt lat="53.80359730" lon="-7.83342550"><ele>50.2</ele><time>2017-12-01T11:45:12Z</time></trkpt>
292        <trkpt lat="53.80337890" lon="-7.83477670"><ele>50.6</ele><time>2017-12-01T11:45:22Z</time></trkpt>
293        <trkpt lat="53.80321460" lon="-7.83664260"><ele>50.2</ele><time>2017-12-01T11:45:32Z</time></trkpt>
294        <trkpt lat="53.80297700" lon="-7.83799030"><ele>50.3</ele><time>2017-12-01T11:45:42Z</time></trkpt>
295        <trkpt lat="53.80287030" lon="-7.83845520"><ele>50.7</ele><time>2017-12-01T11:45:52Z</time></trkpt>
296        <trkpt lat="53.80296770" lon="-7.83820840"><ele>49.8</ele><time>2017-12-01T11:46:02Z</time></trkpt>
297        <trkpt lat="53.80307710" lon="-7.83748140"><ele>48.1</ele><time>2017-12-01T11:46:12Z</time></trkpt>
298        <trkpt lat="53.80297000" lon="-7.83737750"><ele>46.3</ele><time>2017-12-01T11:46:22Z</time></trkpt>
299        <trkpt lat="53.80305890" lon="-7.83748360"><ele>44.1</ele><time>2017-12-01T11:46:42Z</time></trkpt>
300        <trkpt lat="53.80325270" lon="-7.83677990"><ele>41.8</ele><time>2017-12-01T11:50:02Z</time></trkpt>
301        <trkpt lat="53.80336640" lon="-7.83469090"><ele>41.3</ele><time>2017-12-01T11:50:12Z</time></trkpt>
302        <trkpt lat="53.80371380" lon="-7.83260510"><ele>42.2</ele><time>2017-12-01T11:50:22Z</time></trkpt>
303        <trkpt lat="53.80383420" lon="-7.82987650"><ele>43.8</ele><time>2017-12-01T11:50:32Z</time></trkpt>
304        <trkpt lat="53.80391950" lon="-7.82726600"><ele>45.8</ele><time>2017-12-01T11:50:42Z</time></trkpt>
305        <trkpt lat="53.80379230" lon="-7.82672210"><ele>48.1</ele><time>2017-12-01T11:50:52Z</time></trkpt>
306        <trkpt lat="53.80267090" lon="-7.82600060"><ele>50.2</ele><time>2017-12-01T11:51:02Z</time></trkpt>
307        <trkpt lat="53.80114910" lon="-7.82455790"><ele>51.7</ele><time>2017-12-01T11:51:12Z</time></trkpt>
308        <trkpt lat="53.79985260" lon="-7.82343850"><ele>53.0</ele><time>2017-12-01T11:51:22Z</time></trkpt>
309        <trkpt lat="53.79844660" lon="-7.82253600"><ele>52.2</ele><time>2017-12-01T11:51:32Z</time></trkpt>
310        <trkpt lat="53.79782310" lon="-7.82238370"><ele>52.4</ele><time>2017-12-01T11:51:43Z</time></trkpt>
311        <trkpt lat="53.79753890" lon="-7.82223000"><ele>52.2</ele><time>2017-12-01T11:51:53Z</time></trkpt>
312        <trkpt lat="53.79747340" lon="-7.82197330"><ele>52.4</ele><time>2017-12-01T11:52:03Z</time></trkpt>
313        <trkpt lat="53.79757320" lon="-7.82207110"><ele>52.9</ele><time>2017-12-01T11:52:53Z</time></trkpt>
314        <trkpt lat="53.79756490" lon="-7.82236160"><ele>56.0</ele><time>2017-12-01T11:55:12Z</time></trkpt>
315        <trkpt lat="53.79817810" lon="-7.82232800"><ele>58.1</ele><time>2017-12-01T11:55:22Z</time></trkpt>
316        <trkpt lat="53.79919260" lon="-7.82057830"><ele>60.5</ele><time>2017-12-01T11:55:32Z</time></trkpt>
317        <trkpt lat="53.79996570" lon="-7.81807170"><ele>61.7</ele><time>2017-12-01T11:55:42Z</time></trkpt>
318        <trkpt lat="53.80132120" lon="-7.81606430"><ele>61.7</ele><time>2017-12-01T11:55:52Z</time></trkpt>
319        <trkpt lat="53.80296040" lon="-7.81407740"><ele>61.8</ele><time>2017-12-01T11:56:02Z</time></trkpt>
320        <trkpt lat="53.80453940" lon="-7.81148840"><ele>62.2</ele><time>2017-12-01T11:56:12Z</time></trkpt>
321        <trkpt lat="53.80574920" lon="-7.80932010"><ele>63.4</ele><time>2017-12-01T11:56:22Z</time></trkpt>
322        <trkpt lat="53.80624950" lon="-7.80624240"><ele>66.2</ele><time>2017-12-01T11:56:32Z</time></trkpt>
323        <trkpt lat="53.80668980" lon="-7.80329400"><ele>69.5</ele><time>2017-12-01T11:56:42Z</time></trkpt>
324        <trkpt lat="53.80692720" lon="-7.80064570"><ele>71.0</ele><time>2017-12-01T11:56:52Z</time></trkpt>
325        <trkpt lat="53.80730080" lon="-7.79515590"><ele>71.4</ele><time>2017-12-01T11:57:13Z</time></trkpt>
326        <trkpt lat="53.80767380" lon="-7.79244820"><ele>71.5</ele><time>2017-12-01T11:57:22Z</time></trkpt>
327        <trkpt lat="53.80828620" lon="-7.79003920"><ele>70.8</ele><time>2017-12-01T11:57:32Z</time></trkpt>
328        <trkpt lat="53.81301690" lon="-7.78098100"><ele>70.2</ele><time>2017-12-01T11:58:12Z</time></trkpt>
329        <trkpt lat="53.81431630" lon="-7.77876010"><ele>71.0</ele><time>2017-12-01T11:58:22Z</time></trkpt>
330        <trkpt lat="53.81549260" lon="-7.77676480"><ele>72.1</ele><time>2017-12-01T11:58:32Z</time></trkpt>
331        <trkpt lat="53.81649380" lon="-7.77502570"><ele>72.6</ele><time>2017-12-01T11:58:42Z</time></trkpt>
332        <trkpt lat="53.81700690" lon="-7.77393670"><ele>73.0</ele><time>2017-12-01T11:58:52Z</time></trkpt>
333        <trkpt lat="53.81778430" lon="-7.77282610"><ele>72.6</ele><time>2017-12-01T11:59:02Z</time></trkpt>
334        <trkpt lat="53.81810410" lon="-7.77222890"><ele>72.3</ele><time>2017-12-01T11:59:14Z</time></trkpt>
335        <trkpt lat="53.81910010" lon="-7.77060890"><ele>71.2</ele><time>2017-12-01T11:59:25Z</time></trkpt>
336        <trkpt lat="53.81987150" lon="-7.76965830"><ele>69.9</ele><time>2017-12-01T11:59:34Z</time></trkpt>
337        <trkpt lat="53.82063480" lon="-7.76848050"><ele>68.7</ele><time>2017-12-01T11:59:44Z</time></trkpt>
338        <trkpt lat="53.82138040" lon="-7.76698500"><ele>68.3</ele><time>2017-12-01T11:59:54Z</time></trkpt>
339        <trkpt lat="53.82380030" lon="-7.76264540"><ele>67.4</ele><time>2017-12-01T12:00:20Z</time></trkpt>
340        <trkpt lat="53.82512080" lon="-7.76004760"><ele>66.9</ele><time>2017-12-01T12:00:32Z</time></trkpt>
341        <trkpt lat="53.82648600" lon="-7.75761200"><ele>66.6</ele><time>2017-12-01T12:00:42Z</time></trkpt>
342        <trkpt lat="53.82780010" lon="-7.75531570"><ele>66.3</ele><time>2017-12-01T12:00:52Z</time></trkpt>
343        <trkpt lat="53.82943580" lon="-7.75307050"><ele>65.4</ele><time>2017-12-01T12:01:02Z</time></trkpt>
344        <trkpt lat="53.83131500" lon="-7.75102400"><ele>65.0</ele><time>2017-12-01T12:01:12Z</time></trkpt>
345        <trkpt lat="53.83310330" lon="-7.74864960"><ele>64.8</ele><time>2017-12-01T12:01:22Z</time></trkpt>
346        <trkpt lat="53.83478540" lon="-7.74598280"><ele>65.7</ele><time>2017-12-01T12:01:32Z</time></trkpt>
347        <trkpt lat="53.83647820" lon="-7.74322290"><ele>66.7</ele><time>2017-12-01T12:01:42Z</time></trkpt>
348        <trkpt lat="53.83802670" lon="-7.74075530"><ele>68.5</ele><time>2017-12-01T12:01:52Z</time></trkpt>
349        <trkpt lat="53.83936690" lon="-7.73840350"><ele>72.5</ele><time>2017-12-01T12:02:02Z</time></trkpt>
350        <trkpt lat="53.84021600" lon="-7.73663670"><ele>75.8</ele><time>2017-12-01T12:02:12Z</time></trkpt>
351        <trkpt lat="53.84063250" lon="-7.73644230"><ele>77.3</ele><time>2017-12-01T12:02:22Z</time></trkpt>
352        <trkpt lat="53.84060270" lon="-7.73662970"><ele>78.5</ele><time>2017-12-01T12:02:32Z</time></trkpt>
353        <trkpt lat="53.84070130" lon="-7.73660490"><ele>78.8</ele><time>2017-12-01T12:05:12Z</time></trkpt>
354        <trkpt lat="53.84060580" lon="-7.73662960"><ele>75.6</ele><time>2017-12-01T12:07:52Z</time></trkpt>
355        <trkpt lat="53.84052690" lon="-7.73622140"><ele>72.8</ele><time>2017-12-01T12:08:12Z</time></trkpt>
356        <trkpt lat="53.84029040" lon="-7.73643400"><ele>70.5</ele><time>2017-12-01T12:08:22Z</time></trkpt>
357        <trkpt lat="53.83938260" lon="-7.73808180"><ele>67.9</ele><time>2017-12-01T12:08:32Z</time></trkpt>
358        <trkpt lat="53.83819360" lon="-7.74040200"><ele>66.4</ele><time>2017-12-01T12:08:42Z</time></trkpt>
359        <trkpt lat="53.83672210" lon="-7.74277460"><ele>65.5</ele><time>2017-12-01T12:08:52Z</time></trkpt>
360        <trkpt lat="53.83511230" lon="-7.74519780"><ele>65.2</ele><time>2017-12-01T12:09:02Z</time></trkpt>
361        <trkpt lat="53.83342060" lon="-7.74813360"><ele>65.2</ele><time>2017-12-01T12:09:12Z</time></trkpt>
362        <trkpt lat="53.83149480" lon="-7.75088500"><ele>65.5</ele><time>2017-12-01T12:09:22Z</time></trkpt>
363        <trkpt lat="53.82956360" lon="-7.75284140"><ele>65.3</ele><time>2017-12-01T12:09:32Z</time></trkpt>
364        <trkpt lat="53.82761650" lon="-7.75538210"><ele>66.0</ele><time>2017-12-01T12:09:42Z</time></trkpt>
365        <trkpt lat="53.82608720" lon="-7.75826970"><ele>66.4</ele><time>2017-12-01T12:09:52Z</time></trkpt>
366        <trkpt lat="53.82461310" lon="-7.76094840"><ele>68.2</ele><time>2017-12-01T12:10:02Z</time></trkpt>
367        <trkpt lat="53.82392120" lon="-7.76215120"><ele>69.6</ele><time>2017-12-01T12:10:12Z</time></trkpt>
368        <trkpt lat="53.82370460" lon="-7.76230480"><ele>71.1</ele><time>2017-12-01T12:10:22Z</time></trkpt>
369        <trkpt lat="53.82389020" lon="-7.76211660"><ele>72.3</ele><time>2017-12-01T12:10:31Z</time></trkpt>
370        <trkpt lat="53.82398150" lon="-7.76211580"><ele>74.0</ele><time>2017-12-01T12:12:12Z</time></trkpt>
371        <trkpt lat="53.82383000" lon="-7.76239220"><ele>75.5</ele><time>2017-12-01T12:12:52Z</time></trkpt>
372        <trkpt lat="53.82292210" lon="-7.76389020"><ele>78.1</ele><time>2017-12-01T12:13:02Z</time></trkpt>
373        <trkpt lat="53.82182650" lon="-7.76597420"><ele>80.9</ele><time>2017-12-01T12:13:13Z</time></trkpt>
374        <trkpt lat="53.82148650" lon="-7.76570150"><ele>83.8</ele><time>2017-12-01T12:13:22Z</time></trkpt>
375        <trkpt lat="53.81888360" lon="-7.76063960"><ele>87.1</ele><time>2017-12-01T12:13:51Z</time></trkpt>
376        <trkpt lat="53.81364800" lon="-7.75734150"><ele>90.2</ele><time>2017-12-01T12:14:19Z</time></trkpt>
377        <trkpt lat="53.81151750" lon="-7.75438110"><ele>93.3</ele><time>2017-12-01T12:14:32Z</time></trkpt>
378        <trkpt lat="53.80989370" lon="-7.75172920"><ele>97.1</ele><time>2017-12-01T12:14:41Z</time></trkpt>
379        <trkpt lat="53.80798760" lon="-7.74873820"><ele>101.1</ele><time>2017-12-01T12:14:51Z</time></trkpt>
380        <trkpt lat="53.80605120" lon="-7.74580700"><ele>105.1</ele><time>2017-12-01T12:15:01Z</time></trkpt>
381        <trkpt lat="53.80439630" lon="-7.74327990"><ele>109.1</ele><time>2017-12-01T12:15:11Z</time></trkpt>
382        <trkpt lat="53.80382060" lon="-7.74209920"><ele>113.1</ele><time>2017-12-01T12:15:21Z</time></trkpt>
383        <trkpt lat="53.80454730" lon="-7.74072870"><ele>117.9</ele><time>2017-12-01T12:15:31Z</time></trkpt>
384        <trkpt lat="53.80544300" lon="-7.73901830"><ele>122.3</ele><time>2017-12-01T12:15:41Z</time></trkpt>
385        <trkpt lat="53.80632690" lon="-7.73743340"><ele>126.7</ele><time>2017-12-01T12:15:51Z</time></trkpt>
386        <trkpt lat="53.80747640" lon="-7.73557580"><ele>130.0</ele><time>2017-12-01T12:16:01Z</time></trkpt>
387        <trkpt lat="53.80975550" lon="-7.73205110"><ele>131.9</ele><time>2017-12-01T12:16:21Z</time></trkpt>
388        <trkpt lat="53.81120280" lon="-7.73048760"><ele>131.4</ele><time>2017-12-01T12:16:31Z</time></trkpt>
389        <trkpt lat="53.81235540" lon="-7.72884750"><ele>129.9</ele><time>2017-12-01T12:16:41Z</time></trkpt>
390        <trkpt lat="53.81566820" lon="-7.72170370"><ele>128.3</ele><time>2017-12-01T12:17:11Z</time></trkpt>
391        <trkpt lat="53.81657430" lon="-7.71977830"><ele>127.0</ele><time>2017-12-01T12:17:21Z</time></trkpt>
392        <trkpt lat="53.81687510" lon="-7.71946630"><ele>126.4</ele><time>2017-12-01T12:17:31Z</time></trkpt>
393        <trkpt lat="53.81779060" lon="-7.71897350"><ele>125.8</ele><time>2017-12-01T12:21:21Z</time></trkpt>
394        <trkpt lat="53.81901540" lon="-7.71948010"><ele>125.1</ele><time>2017-12-01T12:21:31Z</time></trkpt>
395        <trkpt lat="53.82023520" lon="-7.72096470"><ele>122.7</ele><time>2017-12-01T12:21:41Z</time></trkpt>
396        <trkpt lat="53.82162930" lon="-7.72210580"><ele>119.5</ele><time>2017-12-01T12:21:51Z</time></trkpt>
397        <trkpt lat="53.82319720" lon="-7.72312730"><ele>113.6</ele><time>2017-12-01T12:22:01Z</time></trkpt>
398        <trkpt lat="53.82477830" lon="-7.72451660"><ele>107.8</ele><time>2017-12-01T12:22:11Z</time></trkpt>
399        <trkpt lat="53.82633050" lon="-7.72607440"><ele>102.0</ele><time>2017-12-01T12:22:22Z</time></trkpt>
400        <trkpt lat="53.82755260" lon="-7.72756460"><ele>97.3</ele><time>2017-12-01T12:22:31Z</time></trkpt>
401        <trkpt lat="53.83121800" lon="-7.73324770"><ele>94.0</ele><time>2017-12-01T12:23:13Z</time></trkpt>
402        <trkpt lat="53.83066050" lon="-7.73480750"><ele>93.3</ele><time>2017-12-01T12:23:22Z</time></trkpt>
403        <trkpt lat="53.83067250" lon="-7.73683990"><ele>92.3</ele><time>2017-12-01T12:23:31Z</time></trkpt>
404        <trkpt lat="53.83019300" lon="-7.73938440"><ele>92.5</ele><time>2017-12-01T12:23:42Z</time></trkpt>
405        <trkpt lat="53.82963690" lon="-7.74005730"><ele>92.5</ele><time>2017-12-01T12:23:52Z</time></trkpt>
406        <trkpt lat="53.82979830" lon="-7.73982010"><ele>92.4</ele><time>2017-12-01T12:24:51Z</time></trkpt>
407        <trkpt lat="53.82971850" lon="-7.73971270"><ele>90.9</ele><time>2017-12-01T12:26:51Z</time></trkpt>
408        <trkpt lat="53.82965700" lon="-7.74003190"><ele>92.6</ele><time>2017-12-01T12:27:21Z</time></trkpt>
409        <trkpt lat="53.82984040" lon="-7.74004610"><ele>95.0</ele><time>2017-12-01T12:27:31Z</time></trkpt>
410        <trkpt lat="53.83011570" lon="-7.73972050"><ele>98.2</ele><time>2017-12-01T12:27:41Z</time></trkpt>
411        <trkpt lat="53.83082780" lon="-7.73580410"><ele>101.6</ele><time>2017-12-01T12:28:23Z</time></trkpt>
412        <trkpt lat="53.83848210" lon="-7.71244640"><ele>107.9</ele><time>2017-12-01T12:29:52Z</time></trkpt>
413        <trkpt lat="53.84062890" lon="-7.70445920"><ele>112.4</ele><time>2017-12-01T12:30:32Z</time></trkpt>
414        <trkpt lat="53.83993020" lon="-7.70320360"><ele>114.7</ele><time>2017-12-01T12:30:43Z</time></trkpt>
415        <trkpt lat="53.83976520" lon="-7.70283900"><ele>116.0</ele><time>2017-12-01T12:30:51Z</time></trkpt>
416        <trkpt lat="53.83970210" lon="-7.70312860"><ele>116.5</ele><time>2017-12-01T12:31:12Z</time></trkpt>
417        <trkpt lat="53.84201620" lon="-7.70475390"><ele>114.0</ele><time>2017-12-01T12:34:11Z</time></trkpt>
418        <trkpt lat="53.84385540" lon="-7.70114560"><ele>110.4</ele><time>2017-12-01T12:34:30Z</time></trkpt>
419        <trkpt lat="53.84449560" lon="-7.70121440"><ele>108.1</ele><time>2017-12-01T12:34:41Z</time></trkpt>
420        <trkpt lat="53.84506760" lon="-7.69975460"><ele>106.5</ele><time>2017-12-01T12:34:50Z</time></trkpt>
421        <trkpt lat="53.84803550" lon="-7.69725610"><ele>105.7</ele><time>2017-12-01T12:35:21Z</time></trkpt>
422        <trkpt lat="53.84852280" lon="-7.69577640"><ele>106.8</ele><time>2017-12-01T12:35:31Z</time></trkpt>
423        <trkpt lat="53.84847740" lon="-7.69380270"><ele>108.6</ele><time>2017-12-01T12:35:41Z</time></trkpt>
424        <trkpt lat="53.84710340" lon="-7.69220400"><ele>110.2</ele><time>2017-12-01T12:35:51Z</time></trkpt>
425        <trkpt lat="53.84531800" lon="-7.69053340"><ele>112.0</ele><time>2017-12-01T12:36:01Z</time></trkpt>
426        <trkpt lat="53.84411100" lon="-7.68892900"><ele>113.4</ele><time>2017-12-01T12:36:11Z</time></trkpt>
427        <trkpt lat="53.84383660" lon="-7.68615420"><ele>115.4</ele><time>2017-12-01T12:36:21Z</time></trkpt>
428        <trkpt lat="53.84341240" lon="-7.68376940"><ele>118.1</ele><time>2017-12-01T12:36:31Z</time></trkpt>
429        <trkpt lat="53.84208970" lon="-7.68153530"><ele>121.5</ele><time>2017-12-01T12:36:41Z</time></trkpt>
430        <trkpt lat="53.84064160" lon="-7.67986670"><ele>125.1</ele><time>2017-12-01T12:36:51Z</time></trkpt>
431        <trkpt lat="53.83885460" lon="-7.67755570"><ele>129.1</ele><time>2017-12-01T12:37:02Z</time></trkpt>
432        <trkpt lat="53.83754500" lon="-7.67573320"><ele>133.0</ele><time>2017-12-01T12:37:11Z</time></trkpt>
433        <trkpt lat="53.83641410" lon="-7.67360400"><ele>137.1</ele><time>2017-12-01T12:37:21Z</time></trkpt>
434        <trkpt lat="53.83525120" lon="-7.67091630"><ele>141.2</ele><time>2017-12-01T12:37:33Z</time></trkpt>
435        <trkpt lat="53.83414560" lon="-7.66951860"><ele>145.0</ele><time>2017-12-01T12:37:41Z</time></trkpt>
436        <trkpt lat="53.83347990" lon="-7.66901900"><ele>149.2</ele><time>2017-12-01T12:37:51Z</time></trkpt>
437        <trkpt lat="53.83266290" lon="-7.66869510"><ele>156.3</ele><time>2017-12-01T12:38:02Z</time></trkpt>
438        <trkpt lat="53.83180130" lon="-7.66837730"><ele>161.6</ele><time>2017-12-01T12:38:12Z</time></trkpt>
439        <trkpt lat="53.83184430" lon="-7.66869590"><ele>166.5</ele><time>2017-12-01T12:38:21Z</time></trkpt>
440        <trkpt lat="53.83190140" lon="-7.66854610"><ele>170.9</ele><time>2017-12-01T12:38:33Z</time></trkpt>
441        <trkpt lat="53.83178170" lon="-7.66851310"><ele>174.2</ele><time>2017-12-01T12:41:02Z</time></trkpt>
442        <trkpt lat="53.83192640" lon="-7.66854300"><ele>174.1</ele><time>2017-12-01T12:42:41Z</time></trkpt>
443        <trkpt lat="53.83233950" lon="-7.66860150"><ele>174.3</ele><time>2017-12-01T12:43:12Z</time></trkpt>
444        <trkpt lat="53.83325650" lon="-7.66931130"><ele>173.2</ele><time>2017-12-01T12:43:22Z</time></trkpt>
445        <trkpt lat="53.83353320" lon="-7.66918730"><ele>171.2</ele><time>2017-12-01T12:43:31Z</time></trkpt>
446        <trkpt lat="53.83447530" lon="-7.67003060"><ele>168.5</ele><time>2017-12-01T12:43:41Z</time></trkpt>
447        <trkpt lat="53.83566800" lon="-7.67196160"><ele>164.5</ele><time>2017-12-01T12:43:51Z</time></trkpt>
448        <trkpt lat="53.83662340" lon="-7.67429040"><ele>160.5</ele><time>2017-12-01T12:44:01Z</time></trkpt>
449        <trkpt lat="53.83783300" lon="-7.67647300"><ele>156.5</ele><time>2017-12-01T12:44:11Z</time></trkpt>
450        <trkpt lat="53.83929420" lon="-7.67826260"><ele>152.5</ele><time>2017-12-01T12:44:21Z</time></trkpt>
451        <trkpt lat="53.84075730" lon="-7.68018690"><ele>148.5</ele><time>2017-12-01T12:44:31Z</time></trkpt>
452        <trkpt lat="53.84209200" lon="-7.68183350"><ele>144.5</ele><time>2017-12-01T12:44:41Z</time></trkpt>
453        <trkpt lat="53.84334520" lon="-7.68369750"><ele>140.5</ele><time>2017-12-01T12:44:51Z</time></trkpt>
454        <trkpt lat="53.84381350" lon="-7.68613770"><ele>136.5</ele><time>2017-12-01T12:45:01Z</time></trkpt>
455        <trkpt lat="53.84404270" lon="-7.68889180"><ele>132.5</ele><time>2017-12-01T12:45:11Z</time></trkpt>
456        <trkpt lat="53.84495870" lon="-7.69047150"><ele>128.4</ele><time>2017-12-01T12:45:21Z</time></trkpt>
457        <trkpt lat="53.84683570" lon="-7.69213310"><ele>124.4</ele><time>2017-12-01T12:45:31Z</time></trkpt>
458        <trkpt lat="53.84844580" lon="-7.69386910"><ele>120.4</ele><time>2017-12-01T12:45:41Z</time></trkpt>
459        <trkpt lat="53.84840650" lon="-7.69585170"><ele>116.4</ele><time>2017-12-01T12:45:51Z</time></trkpt>
460        <trkpt lat="53.84866630" lon="-7.69832500"><ele>112.4</ele><time>2017-12-01T12:46:02Z</time></trkpt>
461        <trkpt lat="53.84982060" lon="-7.70067600"><ele>108.5</ele><time>2017-12-01T12:46:11Z</time></trkpt>
462        <trkpt lat="53.85103860" lon="-7.70344040"><ele>105.2</ele><time>2017-12-01T12:46:21Z</time></trkpt>
463        <trkpt lat="53.85232380" lon="-7.70612390"><ele>102.3</ele><time>2017-12-01T12:46:31Z</time></trkpt>
464        <trkpt lat="53.85406950" lon="-7.70826030"><ele>100.0</ele><time>2017-12-01T12:46:41Z</time></trkpt>
465        <trkpt lat="53.85469420" lon="-7.70899940"><ele>97.6</ele><time>2017-12-01T12:46:51Z</time></trkpt>
466        <trkpt lat="53.85570850" lon="-7.71013320"><ele>95.2</ele><time>2017-12-01T12:47:01Z</time></trkpt>
467        <trkpt lat="53.85748970" lon="-7.71187620"><ele>92.1</ele><time>2017-12-01T12:47:11Z</time></trkpt>
468        <trkpt lat="53.85960260" lon="-7.71357740"><ele>88.6</ele><time>2017-12-01T12:47:21Z</time></trkpt>
469        <trkpt lat="53.86155200" lon="-7.71499700"><ele>84.6</ele><time>2017-12-01T12:47:31Z</time></trkpt>
470        <trkpt lat="53.86345100" lon="-7.71640080"><ele>80.6</ele><time>2017-12-01T12:47:41Z</time></trkpt>
471        <trkpt lat="53.86509410" lon="-7.71731560"><ele>76.6</ele><time>2017-12-01T12:47:51Z</time></trkpt>
472        <trkpt lat="53.86618660" lon="-7.71750090"><ele>72.6</ele><time>2017-12-01T12:48:01Z</time></trkpt>
473        <trkpt lat="53.86779860" lon="-7.71815160"><ele>68.6</ele><time>2017-12-01T12:48:11Z</time></trkpt>
474        <trkpt lat="53.86868600" lon="-7.72002520"><ele>65.9</ele><time>2017-12-01T12:48:21Z</time></trkpt>
475        <trkpt lat="53.86932530" lon="-7.72242540"><ele>64.5</ele><time>2017-12-01T12:48:31Z</time></trkpt>
476        <trkpt lat="53.86936870" lon="-7.72438590"><ele>63.8</ele><time>2017-12-01T12:48:41Z</time></trkpt>
477        <trkpt lat="53.86991410" lon="-7.72414340"><ele>63.7</ele><time>2017-12-01T12:48:51Z</time></trkpt>
478        <trkpt lat="53.87137300" lon="-7.72249900"><ele>63.6</ele><time>2017-12-01T12:49:01Z</time></trkpt>
479        <trkpt lat="53.87302720" lon="-7.72072950"><ele>62.2</ele><time>2017-12-01T12:49:11Z</time></trkpt>
480        <trkpt lat="53.87412510" lon="-7.71952820"><ele>62.6</ele><time>2017-12-01T12:49:21Z</time></trkpt>
481        <trkpt lat="53.87516540" lon="-7.71817140"><ele>63.2</ele><time>2017-12-01T12:49:30Z</time></trkpt>
482        <trkpt lat="53.87535850" lon="-7.71779750"><ele>63.9</ele><time>2017-12-01T12:49:40Z</time></trkpt>
483        <trkpt lat="53.87525340" lon="-7.71778790"><ele>65.7</ele><time>2017-12-01T12:49:51Z</time></trkpt>
484        <trkpt lat="53.87536970" lon="-7.71788990"><ele>67.5</ele><time>2017-12-01T12:51:21Z</time></trkpt>
485        <trkpt lat="53.87599270" lon="-7.71635280"><ele>67.8</ele><time>2017-12-01T12:52:01Z</time></trkpt>
486        <trkpt lat="53.87710270" lon="-7.71378890"><ele>68.8</ele><time>2017-12-01T12:52:11Z</time></trkpt>
487        <trkpt lat="53.87830850" lon="-7.71108570"><ele>70.7</ele><time>2017-12-01T12:52:21Z</time></trkpt>
488        <trkpt lat="53.87985840" lon="-7.70556490"><ele>73.0</ele><time>2017-12-01T12:52:41Z</time></trkpt>
489        <trkpt lat="53.88103210" lon="-7.70248540"><ele>77.9</ele><time>2017-12-01T12:52:52Z</time></trkpt>
490        <trkpt lat="53.88200520" lon="-7.70003400"><ele>82.6</ele><time>2017-12-01T12:53:01Z</time></trkpt>
491        <trkpt lat="53.88302160" lon="-7.69717770"><ele>88.2</ele><time>2017-12-01T12:53:11Z</time></trkpt>
492        <trkpt lat="53.88409070" lon="-7.69407590"><ele>93.7</ele><time>2017-12-01T12:53:21Z</time></trkpt>
493        <trkpt lat="53.88382520" lon="-7.68437310"><ele>99.3</ele><time>2017-12-01T12:54:31Z</time></trkpt>
494        <trkpt lat="53.88303620" lon="-7.68403000"><ele>103.9</ele><time>2017-12-01T12:54:41Z</time></trkpt>
495        <trkpt lat="53.88088630" lon="-7.68376390"><ele>108.2</ele><time>2017-12-01T12:55:01Z</time></trkpt>
496        <trkpt lat="53.87989680" lon="-7.68260550"><ele>111.8</ele><time>2017-12-01T12:55:11Z</time></trkpt>
497        <trkpt lat="53.87900070" lon="-7.68101240"><ele>114.8</ele><time>2017-12-01T12:55:21Z</time></trkpt>
498        <trkpt lat="53.87802330" lon="-7.67969880"><ele>116.1</ele><time>2017-12-01T12:55:31Z</time></trkpt>
499        <trkpt lat="53.87734090" lon="-7.67915040"><ele>115.9</ele><time>2017-12-01T12:55:41Z</time></trkpt>
500        <trkpt lat="53.87703810" lon="-7.68040190"><ele>114.8</ele><time>2017-12-01T12:55:51Z</time></trkpt>
501        <trkpt lat="53.87741380" lon="-7.68109760"><ele>112.8</ele><time>2017-12-01T12:56:01Z</time></trkpt>
502        <trkpt lat="53.87699980" lon="-7.68212850"><ele>111.0</ele><time>2017-12-01T12:56:11Z</time></trkpt>
503        <trkpt lat="53.87723170" lon="-7.68261900"><ele>110.1</ele><time>2017-12-01T12:56:21Z</time></trkpt>
504        <trkpt lat="53.87743710" lon="-7.68287130"><ele>109.9</ele><time>2017-12-01T12:56:31Z</time></trkpt>
505        <trkpt lat="53.87736830" lon="-7.68270740"><ele>110.9</ele><time>2017-12-01T12:56:40Z</time></trkpt>
506        <trkpt lat="53.87717000" lon="-7.68245200"><ele>112.0</ele><time>2017-12-01T13:03:31Z</time></trkpt>
507        <trkpt lat="53.87705030" lon="-7.68209870"><ele>112.8</ele><time>2017-12-01T13:03:41Z</time></trkpt>
508        <trkpt lat="53.87737400" lon="-7.68133050"><ele>113.9</ele><time>2017-12-01T13:03:51Z</time></trkpt>
509        <trkpt lat="53.87710800" lon="-7.68063680"><ele>114.1</ele><time>2017-12-01T13:04:01Z</time></trkpt>
510        <trkpt lat="53.87716170" lon="-7.67977580"><ele>112.9</ele><time>2017-12-01T13:04:11Z</time></trkpt>
511        <trkpt lat="53.87688180" lon="-7.67736510"><ele>110.9</ele><time>2017-12-01T13:04:32Z</time></trkpt>
512        <trkpt lat="53.87634220" lon="-7.67591980"><ele>109.5</ele><time>2017-12-01T13:04:41Z</time></trkpt>
513        <trkpt lat="53.87547600" lon="-7.67431650"><ele>107.3</ele><time>2017-12-01T13:04:52Z</time></trkpt>
514        <trkpt lat="53.87472660" lon="-7.67296190"><ele>106.6</ele><time>2017-12-01T13:05:01Z</time></trkpt>
515        <trkpt lat="53.87380340" lon="-7.67152850"><ele>106.2</ele><time>2017-12-01T13:05:12Z</time></trkpt>
516        <trkpt lat="53.87336810" lon="-7.67067860"><ele>106.9</ele><time>2017-12-01T13:05:21Z</time></trkpt>
517        <trkpt lat="53.87384990" lon="-7.66978020"><ele>106.8</ele><time>2017-12-01T13:05:31Z</time></trkpt>
518        <trkpt lat="53.87525490" lon="-7.66771280"><ele>106.6</ele><time>2017-12-01T13:05:41Z</time></trkpt>
519        <trkpt lat="53.87682200" lon="-7.66583780"><ele>105.0</ele><time>2017-12-01T13:05:51Z</time></trkpt>
520        <trkpt lat="53.87895120" lon="-7.66515470"><ele>103.0</ele><time>2017-12-01T13:06:01Z</time></trkpt>
521        <trkpt lat="53.88115850" lon="-7.66497270"><ele>99.8</ele><time>2017-12-01T13:06:11Z</time></trkpt>
522        <trkpt lat="53.88352580" lon="-7.66453200"><ele>96.4</ele><time>2017-12-01T13:06:21Z</time></trkpt>
523        <trkpt lat="53.88567580" lon="-7.66298560"><ele>93.2</ele><time>2017-12-01T13:06:31Z</time></trkpt>
524        <trkpt lat="53.88784320" lon="-7.66134320"><ele>90.8</ele><time>2017-12-01T13:06:41Z</time></trkpt>
525        <trkpt lat="53.89011640" lon="-7.65969780"><ele>89.7</ele><time>2017-12-01T13:06:51Z</time></trkpt>
526        <trkpt lat="53.89217320" lon="-7.65845140"><ele>90.1</ele><time>2017-12-01T13:07:01Z</time></trkpt>
527        <trkpt lat="53.89427800" lon="-7.65719210"><ele>91.6</ele><time>2017-12-01T13:07:11Z</time></trkpt>
528        <trkpt lat="53.89639780" lon="-7.65579210"><ele>94.5</ele><time>2017-12-01T13:07:21Z</time></trkpt>
529        <trkpt lat="53.89859840" lon="-7.65394450"><ele>98.1</ele><time>2017-12-01T13:07:32Z</time></trkpt>
530        <trkpt lat="53.89984230" lon="-7.65142490"><ele>102.0</ele><time>2017-12-01T13:07:41Z</time></trkpt>
531        <trkpt lat="53.90149340" lon="-7.64900940"><ele>106.0</ele><time>2017-12-01T13:07:51Z</time></trkpt>
532        <trkpt lat="53.90360290" lon="-7.64786760"><ele>109.9</ele><time>2017-12-01T13:08:01Z</time></trkpt>
533        <trkpt lat="53.90553920" lon="-7.64654390"><ele>113.6</ele><time>2017-12-01T13:08:11Z</time></trkpt>
534        <trkpt lat="53.90639420" lon="-7.64356140"><ele>116.5</ele><time>2017-12-01T13:08:21Z</time></trkpt>
535        <trkpt lat="53.90676980" lon="-7.63991560"><ele>118.0</ele><time>2017-12-01T13:08:30Z</time></trkpt>
536        <trkpt lat="53.90725320" lon="-7.63640540"><ele>119.7</ele><time>2017-12-01T13:08:40Z</time></trkpt>
537        <trkpt lat="53.90931350" lon="-7.63470040"><ele>120.6</ele><time>2017-12-01T13:08:51Z</time></trkpt>
538        <trkpt lat="53.91109720" lon="-7.63202190"><ele>120.5</ele><time>2017-12-01T13:09:02Z</time></trkpt>
539        <trkpt lat="53.91207400" lon="-7.62982040"><ele>119.6</ele><time>2017-12-01T13:09:11Z</time></trkpt>
540        <trkpt lat="53.91378200" lon="-7.62901870"><ele>118.5</ele><time>2017-12-01T13:09:21Z</time></trkpt>
541        <trkpt lat="53.91580620" lon="-7.62823920"><ele>115.7</ele><time>2017-12-01T13:09:31Z</time></trkpt>
542        <trkpt lat="53.91710520" lon="-7.62606420"><ele>112.2</ele><time>2017-12-01T13:09:40Z</time></trkpt>
543        <trkpt lat="53.91752120" lon="-7.62192020"><ele>107.5</ele><time>2017-12-01T13:09:50Z</time></trkpt>
544        <trkpt lat="53.91819790" lon="-7.61840570"><ele>102.6</ele><time>2017-12-01T13:10:01Z</time></trkpt>
545        <trkpt lat="53.91987410" lon="-7.61551130"><ele>96.9</ele><time>2017-12-01T13:10:12Z</time></trkpt>
546        <trkpt lat="53.92133160" lon="-7.61388380"><ele>91.9</ele><time>2017-12-01T13:10:20Z</time></trkpt>
547        <trkpt lat="53.92388490" lon="-7.61608420"><ele>88.1</ele><time>2017-12-01T13:10:40Z</time></trkpt>
548        <trkpt lat="53.92588230" lon="-7.61816710"><ele>86.6</ele><time>2017-12-01T13:10:53Z</time></trkpt>
549        <trkpt lat="53.92902080" lon="-7.62052700"><ele>85.8</ele><time>2017-12-01T13:11:13Z</time></trkpt>
550        <trkpt lat="53.92947700" lon="-7.61975380"><ele>86.8</ele><time>2017-12-01T13:11:23Z</time></trkpt>
551        <trkpt lat="53.92970300" lon="-7.61833340"><ele>88.6</ele><time>2017-12-01T13:11:32Z</time></trkpt>
552        <trkpt lat="53.92998530" lon="-7.61752580"><ele>89.3</ele><time>2017-12-01T13:11:43Z</time></trkpt>
553        <trkpt lat="53.93011030" lon="-7.61759640"><ele>88.8</ele><time>2017-12-01T13:11:53Z</time></trkpt>
554        <trkpt lat="53.93010870" lon="-7.61744390"><ele>88.2</ele><time>2017-12-01T13:12:44Z</time></trkpt>
555        <trkpt lat="53.92976210" lon="-7.61818540"><ele>86.5</ele><time>2017-12-01T13:15:33Z</time></trkpt>
556        <trkpt lat="53.92942030" lon="-7.61978890"><ele>84.3</ele><time>2017-12-01T13:15:43Z</time></trkpt>
557        <trkpt lat="53.92921000" lon="-7.62058710"><ele>81.0</ele><time>2017-12-01T13:15:53Z</time></trkpt>
558        <trkpt lat="53.92844950" lon="-7.62012650"><ele>78.6</ele><time>2017-12-01T13:16:02Z</time></trkpt>
559        <trkpt lat="53.92695010" lon="-7.61922540"><ele>79.0</ele><time>2017-12-01T13:16:12Z</time></trkpt>
560        <trkpt lat="53.92607030" lon="-7.61822580"><ele>81.1</ele><time>2017-12-01T13:16:22Z</time></trkpt>
561        <trkpt lat="53.92546670" lon="-7.61757370"><ele>83.9</ele><time>2017-12-01T13:21:44Z</time></trkpt>
562        <trkpt lat="53.92457000" lon="-7.61671430"><ele>91.5</ele><time>2017-12-01T13:21:51Z</time></trkpt>
563        <trkpt lat="53.92068380" lon="-7.61439370"><ele>100.3</ele><time>2017-12-01T13:22:25Z</time></trkpt>
564        <trkpt lat="53.91910620" lon="-7.61665860"><ele>108.2</ele><time>2017-12-01T13:22:36Z</time></trkpt>
565        <trkpt lat="53.91774790" lon="-7.61969650"><ele>116.1</ele><time>2017-12-01T13:22:46Z</time></trkpt>
566        <trkpt lat="53.91335380" lon="-7.62833650"><ele>123.3</ele><time>2017-12-01T13:23:26Z</time></trkpt>
567        <trkpt lat="53.91058980" lon="-7.62492050"><ele>128.1</ele><time>2017-12-01T13:23:46Z</time></trkpt>
568        <trkpt lat="53.90771410" lon="-7.62224980"><ele>132.0</ele><time>2017-12-01T13:24:06Z</time></trkpt>
569        <trkpt lat="53.90631810" lon="-7.62114440"><ele>134.7</ele><time>2017-12-01T13:24:16Z</time></trkpt>
570        <trkpt lat="53.90474830" lon="-7.62006000"><ele>137.3</ele><time>2017-12-01T13:24:27Z</time></trkpt>
571        <trkpt lat="53.90341930" lon="-7.61942900"><ele>140.7</ele><time>2017-12-01T13:24:36Z</time></trkpt>
572        <trkpt lat="53.90190160" lon="-7.61860230"><ele>143.6</ele><time>2017-12-01T13:24:46Z</time></trkpt>
573        <trkpt lat="53.90019450" lon="-7.61758350"><ele>145.7</ele><time>2017-12-01T13:24:56Z</time></trkpt>
574        <trkpt lat="53.89862800" lon="-7.61668560"><ele>147.1</ele><time>2017-12-01T13:25:06Z</time></trkpt>
575        <trkpt lat="53.89727620" lon="-7.61561570"><ele>146.9</ele><time>2017-12-01T13:25:16Z</time></trkpt>
576        <trkpt lat="53.89584860" lon="-7.61451250"><ele>145.0</ele><time>2017-12-01T13:25:26Z</time></trkpt>
577        <trkpt lat="53.89481280" lon="-7.61375450"><ele>142.1</ele><time>2017-12-01T13:25:36Z</time></trkpt>
578        <trkpt lat="53.89345600" lon="-7.61288330"><ele>138.5</ele><time>2017-12-01T13:25:46Z</time></trkpt>
579        <trkpt lat="53.89181360" lon="-7.61168880"><ele>134.5</ele><time>2017-12-01T13:25:56Z</time></trkpt>
580        <trkpt lat="53.89010270" lon="-7.61079160"><ele>130.5</ele><time>2017-12-01T13:26:06Z</time></trkpt>
581        <trkpt lat="53.88844010" lon="-7.60980890"><ele>126.5</ele><time>2017-12-01T13:26:16Z</time></trkpt>
582        <trkpt lat="53.88680750" lon="-7.60889970"><ele>122.5</ele><time>2017-12-01T13:26:26Z</time></trkpt>
583        <trkpt lat="53.88536350" lon="-7.60810960"><ele>118.8</ele><time>2017-12-01T13:26:36Z</time></trkpt>
584        <trkpt lat="53.88379320" lon="-7.60729400"><ele>116.1</ele><time>2017-12-01T13:26:46Z</time></trkpt>
585        <trkpt lat="53.88229910" lon="-7.60607500"><ele>114.2</ele><time>2017-12-01T13:26:56Z</time></trkpt>
586        <trkpt lat="53.88080760" lon="-7.60494510"><ele>112.2</ele><time>2017-12-01T13:27:06Z</time></trkpt>
587        <trkpt lat="53.87921140" lon="-7.60384240"><ele>110.2</ele><time>2017-12-01T13:27:16Z</time></trkpt>
588        <trkpt lat="53.87771430" lon="-7.60284280"><ele>107.8</ele><time>2017-12-01T13:27:26Z</time></trkpt>
589        <trkpt lat="53.87643120" lon="-7.60190060"><ele>104.5</ele><time>2017-12-01T13:27:36Z</time></trkpt>
590        <trkpt lat="53.87505520" lon="-7.60139180"><ele>100.6</ele><time>2017-12-01T13:27:46Z</time></trkpt>
591        <trkpt lat="53.87349940" lon="-7.60076340"><ele>96.8</ele><time>2017-12-01T13:27:56Z</time></trkpt>
592        <trkpt lat="53.87189460" lon="-7.60015530"><ele>93.4</ele><time>2017-12-01T13:28:07Z</time></trkpt>
593        <trkpt lat="53.87105590" lon="-7.59993240"><ele>90.9</ele><time>2017-12-01T13:28:16Z</time></trkpt>
594        <trkpt lat="53.87101780" lon="-7.59966340"><ele>89.4</ele><time>2017-12-01T13:28:26Z</time></trkpt>
595        <trkpt lat="53.87193320" lon="-7.59924980"><ele>87.7</ele><time>2017-12-01T13:28:36Z</time></trkpt>
596        <trkpt lat="53.87370930" lon="-7.59840620"><ele>86.1</ele><time>2017-12-01T13:28:46Z</time></trkpt>
597        <trkpt lat="53.87550270" lon="-7.59705930"><ele>85.1</ele><time>2017-12-01T13:28:57Z</time></trkpt>
598        <trkpt lat="53.87685280" lon="-7.59689330"><ele>84.6</ele><time>2017-12-01T13:29:06Z</time></trkpt>
599        <trkpt lat="53.87843360" lon="-7.59673530"><ele>84.7</ele><time>2017-12-01T13:29:16Z</time></trkpt>
600        <trkpt lat="53.87895930" lon="-7.59670060"><ele>86.3</ele><time>2017-12-01T13:29:26Z</time></trkpt>
601        <trkpt lat="53.87910090" lon="-7.59789080"><ele>88.9</ele><time>2017-12-01T13:29:36Z</time></trkpt>
602        <trkpt lat="53.87945850" lon="-7.59943470"><ele>91.1</ele><time>2017-12-01T13:29:47Z</time></trkpt>
603        <trkpt lat="53.88000680" lon="-7.59970680"><ele>91.8</ele><time>2017-12-01T13:29:56Z</time></trkpt>
604        <trkpt lat="53.88006060" lon="-7.60004620"><ele>91.0</ele><time>2017-12-01T13:30:06Z</time></trkpt>
605        <trkpt lat="53.88007200" lon="-7.59965960"><ele>88.6</ele><time>2017-12-01T13:34:46Z</time></trkpt>
606        <trkpt lat="53.87952860" lon="-7.59934860"><ele>85.2</ele><time>2017-12-01T13:34:56Z</time></trkpt>
607        <trkpt lat="53.87917010" lon="-7.59808390"><ele>82.6</ele><time>2017-12-01T13:35:06Z</time></trkpt>
608        <trkpt lat="53.87897410" lon="-7.59656720"><ele>80.9</ele><time>2017-12-01T13:35:16Z</time></trkpt>
609        <trkpt lat="53.87854440" lon="-7.59656000"><ele>80.3</ele><time>2017-12-01T13:35:26Z</time></trkpt>
610        <trkpt lat="53.87690460" lon="-7.59688220"><ele>80.1</ele><time>2017-12-01T13:35:37Z</time></trkpt>
611        <trkpt lat="53.87521790" lon="-7.59725790"><ele>80.0</ele><time>2017-12-01T13:35:46Z</time></trkpt>
612        <trkpt lat="53.87348340" lon="-7.59835990"><ele>78.6</ele><time>2017-12-01T13:35:56Z</time></trkpt>
613        <trkpt lat="53.87161050" lon="-7.59936650"><ele>77.7</ele><time>2017-12-01T13:36:06Z</time></trkpt>
614        <trkpt lat="53.86995100" lon="-7.60024520"><ele>77.4</ele><time>2017-12-01T13:36:16Z</time></trkpt>
615        <trkpt lat="53.86807640" lon="-7.60120330"><ele>78.3</ele><time>2017-12-01T13:36:26Z</time></trkpt>
616        <trkpt lat="53.86615180" lon="-7.60197480"><ele>81.5</ele><time>2017-12-01T13:36:36Z</time></trkpt>
617        <trkpt lat="53.86419790" lon="-7.60219240"><ele>84.7</ele><time>2017-12-01T13:36:46Z</time></trkpt>
618        <trkpt lat="53.86241980" lon="-7.60194120"><ele>87.8</ele><time>2017-12-01T13:36:55Z</time></trkpt>
619        <trkpt lat="53.86004100" lon="-7.60200110"><ele>90.3</ele><time>2017-12-01T13:37:06Z</time></trkpt>
620        <trkpt lat="53.85556400" lon="-7.60293370"><ele>92.3</ele><time>2017-12-01T13:37:26Z</time></trkpt>
621        <trkpt lat="53.85311930" lon="-7.60343340"><ele>91.9</ele><time>2017-12-01T13:37:36Z</time></trkpt>
622        <trkpt lat="53.85117440" lon="-7.60384590"><ele>90.6</ele><time>2017-12-01T13:37:47Z</time></trkpt>
623        <trkpt lat="53.85001810" lon="-7.60406250"><ele>86.0</ele><time>2017-12-01T13:37:56Z</time></trkpt>
624        <trkpt lat="53.84963570" lon="-7.60420380"><ele>82.1</ele><time>2017-12-01T13:38:06Z</time></trkpt>
625        <trkpt lat="53.84978810" lon="-7.60408230"><ele>78.5</ele><time>2017-12-01T13:38:16Z</time></trkpt>
626        <trkpt lat="53.84970640" lon="-7.60415290"><ele>76.5</ele><time>2017-12-01T13:38:46Z</time></trkpt>
627        <trkpt lat="53.84956670" lon="-7.60420980"><ele>77.2</ele><time>2017-12-01T13:42:06Z</time></trkpt>
628        <trkpt lat="53.84968770" lon="-7.60420820"><ele>81.2</ele><time>2017-12-01T13:42:16Z</time></trkpt>
629        <trkpt lat="53.85057330" lon="-7.60404060"><ele>85.2</ele><time>2017-12-01T13:42:26Z</time></trkpt>
630        <trkpt lat="53.85113530" lon="-7.60451660"><ele>89.2</ele><time>2017-12-01T13:42:36Z</time></trkpt>
631        <trkpt lat="53.85100130" lon="-7.60699470"><ele>93.2</ele><time>2017-12-01T13:42:47Z</time></trkpt>
632        <trkpt lat="53.85023770" lon="-7.60923810"><ele>97.0</ele><time>2017-12-01T13:42:56Z</time></trkpt>
633        <trkpt lat="53.84926930" lon="-7.61188410"><ele>100.9</ele><time>2017-12-01T13:43:06Z</time></trkpt>
634        <trkpt lat="53.84828510" lon="-7.61503610"><ele>104.8</ele><time>2017-12-01T13:43:16Z</time></trkpt>
635        <trkpt lat="53.84783080" lon="-7.61828700"><ele>108.8</ele><time>2017-12-01T13:43:26Z</time></trkpt>
636        <trkpt lat="53.84784550" lon="-7.62180170"><ele>112.7</ele><time>2017-12-01T13:43:35Z</time></trkpt>
637        <trkpt lat="53.84778210" lon="-7.62581110"><ele>116.7</ele><time>2017-12-01T13:43:45Z</time></trkpt>
638        <trkpt lat="53.84745300" lon="-7.62976870"><ele>120.7</ele><time>2017-12-01T13:43:56Z</time></trkpt>
639        <trkpt lat="53.84729640" lon="-7.63370040"><ele>124.7</ele><time>2017-12-01T13:44:06Z</time></trkpt>
640        <trkpt lat="53.84660410" lon="-7.63703040"><ele>128.7</ele><time>2017-12-01T13:44:16Z</time></trkpt>
641        <trkpt lat="53.84589100" lon="-7.64080130"><ele>132.0</ele><time>2017-12-01T13:44:26Z</time></trkpt>
642        <trkpt lat="53.84543970" lon="-7.64293850"><ele>134.2</ele><time>2017-12-01T13:44:36Z</time></trkpt>
643        <trkpt lat="53.84461890" lon="-7.64200080"><ele>134.8</ele><time>2017-12-01T13:44:46Z</time></trkpt>
644        <trkpt lat="53.84321790" lon="-7.64054810"><ele>133.9</ele><time>2017-12-01T13:44:56Z</time></trkpt>
645        <trkpt lat="53.84121280" lon="-7.63941560"><ele>132.5</ele><time>2017-12-01T13:45:07Z</time></trkpt>
646        <trkpt lat="53.84012460" lon="-7.63897280"><ele>131.5</ele><time>2017-12-01T13:45:16Z</time></trkpt>
647        <trkpt lat="53.84028070" lon="-7.63791400"><ele>130.4</ele><time>2017-12-01T13:45:26Z</time></trkpt>
648        <trkpt lat="53.84047580" lon="-7.63756330"><ele>131.6</ele><time>2017-12-01T13:45:36Z</time></trkpt>
649        <trkpt lat="53.84045430" lon="-7.63779810"><ele>134.0</ele><time>2017-12-01T13:45:47Z</time></trkpt>
650        <trkpt lat="53.84040350" lon="-7.63802680"><ele>135.5</ele><time>2017-12-01T13:45:56Z</time></trkpt>
651        <trkpt lat="53.84037010" lon="-7.63786980"><ele>135.7</ele><time>2017-12-01T13:47:07Z</time></trkpt>
652        <trkpt lat="53.84007940" lon="-7.63874820"><ele>135.7</ele><time>2017-12-01T13:50:26Z</time></trkpt>
653        <trkpt lat="53.83982480" lon="-7.63884890"><ele>133.2</ele><time>2017-12-01T13:50:37Z</time></trkpt>
654        <trkpt lat="53.83867310" lon="-7.63836330"><ele>130.8</ele><time>2017-12-01T13:50:46Z</time></trkpt>
655        <trkpt lat="53.83673220" lon="-7.63817880"><ele>129.7</ele><time>2017-12-01T13:50:56Z</time></trkpt>
656        <trkpt lat="53.83493580" lon="-7.63859610"><ele>130.3</ele><time>2017-12-01T13:51:06Z</time></trkpt>
657        <trkpt lat="53.83303630" lon="-7.63822550"><ele>132.3</ele><time>2017-12-01T13:51:16Z</time></trkpt>
658        <trkpt lat="53.83082580" lon="-7.63758350"><ele>136.0</ele><time>2017-12-01T13:51:27Z</time></trkpt>
659        <trkpt lat="53.82896000" lon="-7.63671430"><ele>139.9</ele><time>2017-12-01T13:51:36Z</time></trkpt>
660        <trkpt lat="53.82751230" lon="-7.63565310"><ele>143.9</ele><time>2017-12-01T13:51:47Z</time></trkpt>
661        <trkpt lat="53.82693060" lon="-7.63643380"><ele>147.8</ele><time>2017-12-01T13:51:56Z</time></trkpt>
662        <trkpt lat="53.82644610" lon="-7.63735190"><ele>152.8</ele><time>2017-12-01T13:52:06Z</time></trkpt>
663        <trkpt lat="53.82643240" lon="-7.63926460"><ele>157.1</ele><time>2017-12-01T13:52:16Z</time></trkpt>
664        <trkpt lat="53.82640020" lon="-7.64102540"><ele>160.6</ele><time>2017-12-01T13:52:26Z</time></trkpt>
665        <trkpt lat="53.82629510" lon="-7.64195800"><ele>163.9</ele><time>2017-12-01T13:52:36Z</time></trkpt>
666        <trkpt lat="53.82622370" lon="-7.64180770"><ele>166.8</ele><time>2017-12-01T13:53:06Z</time></trkpt>
667        <trkpt lat="53.82645800" lon="-7.64084670"><ele>167.7</ele><time>2017-12-01T13:58:56Z</time></trkpt>
668        <trkpt lat="53.82648670" lon="-7.63879640"><ele>168.4</ele><time>2017-12-01T13:59:06Z</time></trkpt>
669        <trkpt lat="53.82648030" lon="-7.63705120"><ele>168.2</ele><time>2017-12-01T13:59:16Z</time></trkpt>
670        <trkpt lat="53.82706620" lon="-7.63630390"><ele>168.1</ele><time>2017-12-01T13:59:26Z</time></trkpt>
671        <trkpt lat="53.82750880" lon="-7.63571500"><ele>167.9</ele><time>2017-12-01T13:59:36Z</time></trkpt>
672        <trkpt lat="53.82696290" lon="-7.63510840"><ele>168.0</ele><time>2017-12-01T13:59:46Z</time></trkpt>
673        <trkpt lat="53.82525550" lon="-7.63384950"><ele>168.1</ele><time>2017-12-01T13:59:57Z</time></trkpt>
674        <trkpt lat="53.82365600" lon="-7.63205790"><ele>169.8</ele><time>2017-12-01T14:00:06Z</time></trkpt>
675        <trkpt lat="53.82205340" lon="-7.62920560"><ele>171.5</ele><time>2017-12-01T14:00:16Z</time></trkpt>
676        <trkpt lat="53.82056320" lon="-7.62641920"><ele>172.4</ele><time>2017-12-01T14:00:26Z</time></trkpt>
677        <trkpt lat="53.81975900" lon="-7.62491480"><ele>172.5</ele><time>2017-12-01T14:00:36Z</time></trkpt>
678        <trkpt lat="53.81914470" lon="-7.62592510"><ele>171.8</ele><time>2017-12-01T14:00:46Z</time></trkpt>
679        <trkpt lat="53.81799330" lon="-7.62778750"><ele>169.5</ele><time>2017-12-01T14:00:56Z</time></trkpt>
680        <trkpt lat="53.81676680" lon="-7.62961790"><ele>165.7</ele><time>2017-12-01T14:01:06Z</time></trkpt>
681        <trkpt lat="53.81581780" lon="-7.63079980"><ele>161.9</ele><time>2017-12-01T14:01:16Z</time></trkpt>
682        <trkpt lat="53.81484360" lon="-7.63259590"><ele>159.4</ele><time>2017-12-01T14:01:26Z</time></trkpt>
683        <trkpt lat="53.81363150" lon="-7.63486680"><ele>157.3</ele><time>2017-12-01T14:01:37Z</time></trkpt>
684        <trkpt lat="53.81286810" lon="-7.63629970"><ele>155.5</ele><time>2017-12-01T14:01:46Z</time></trkpt>
685        <trkpt lat="53.81224420" lon="-7.63726210"><ele>153.6</ele><time>2017-12-01T14:01:56Z</time></trkpt>
686        <trkpt lat="53.81101740" lon="-7.63867380"><ele>151.9</ele><time>2017-12-01T14:02:06Z</time></trkpt>
687        <trkpt lat="53.81046120" lon="-7.63896720"><ele>150.6</ele><time>2017-12-01T14:02:16Z</time></trkpt>
688        <trkpt lat="53.80996470" lon="-7.63708260"><ele>150.4</ele><time>2017-12-01T14:02:26Z</time></trkpt>
689        <trkpt lat="53.80920650" lon="-7.63438080"><ele>151.6</ele><time>2017-12-01T14:02:37Z</time></trkpt>
690        <trkpt lat="53.80860100" lon="-7.63265790"><ele>154.1</ele><time>2017-12-01T14:02:46Z</time></trkpt>
691        <trkpt lat="53.80775630" lon="-7.63023790"><ele>157.9</ele><time>2017-12-01T14:02:56Z</time></trkpt>
692        <trkpt lat="53.80693230" lon="-7.62799460"><ele>160.3</ele><time>2017-12-01T14:03:06Z</time></trkpt>
693        <trkpt lat="53.80585750" lon="-7.62576940"><ele>162.2</ele><time>2017-12-01T14:03:16Z</time></trkpt>
694        <trkpt lat="53.80504520" lon="-7.62324660"><ele>162.5</ele><time>2017-12-01T14:03:26Z</time></trkpt>
695        <trkpt lat="53.80459950" lon="-7.62023940"><ele>161.3</ele><time>2017-12-01T14:03:37Z</time></trkpt>
696        <trkpt lat="53.80425070" lon="-7.61840580"><ele>158.6</ele><time>2017-12-01T14:03:46Z</time></trkpt>
697        <trkpt lat="53.80385120" lon="-7.61856210"><ele>155.6</ele><time>2017-12-01T14:03:56Z</time></trkpt>
698        <trkpt lat="53.80222910" lon="-7.61968910"><ele>151.6</ele><time>2017-12-01T14:04:06Z</time></trkpt>
699        <trkpt lat="53.79998430" lon="-7.62113310"><ele>147.6</ele><time>2017-12-01T14:04:16Z</time></trkpt>
700        <trkpt lat="53.79785300" lon="-7.62244530"><ele>136.6</ele><time>2017-12-01T14:04:26Z</time></trkpt>
701        <trkpt lat="53.79571900" lon="-7.62354030"><ele>126.7</ele><time>2017-12-01T14:04:37Z</time></trkpt>
702        <trkpt lat="53.79450960" lon="-7.62418970"><ele>116.9</ele><time>2017-12-01T14:04:46Z</time></trkpt>
703        <trkpt lat="53.79419140" lon="-7.62444880"><ele>107.0</ele><time>2017-12-01T14:04:56Z</time></trkpt>
704        <trkpt lat="53.79345180" lon="-7.62584230"><ele>97.1</ele><time>2017-12-01T14:11:21Z</time></trkpt>
705        <trkpt lat="53.79289980" lon="-7.62853330"><ele>94.0</ele><time>2017-12-01T14:11:31Z</time></trkpt>
706        <trkpt lat="53.79213470" lon="-7.63131040"><ele>89.2</ele><time>2017-12-01T14:11:41Z</time></trkpt>
707        <trkpt lat="53.79137930" lon="-7.63438770"><ele>84.9</ele><time>2017-12-01T14:11:51Z</time></trkpt>
708        <trkpt lat="53.79104890" lon="-7.63731200"><ele>81.5</ele><time>2017-12-01T14:12:01Z</time></trkpt>
709        <trkpt lat="53.79106150" lon="-7.63793360"><ele>78.5</ele><time>2017-12-01T14:12:11Z</time></trkpt>
710        <trkpt lat="53.79137040" lon="-7.63758060"><ele>75.5</ele><time>2017-12-01T14:12:31Z</time></trkpt>
711        <trkpt lat="53.79116440" lon="-7.63783300"><ele>74.4</ele><time>2017-12-01T14:15:01Z</time></trkpt>
712        <trkpt lat="53.79102390" lon="-7.63871270"><ele>74.6</ele><time>2017-12-01T14:15:11Z</time></trkpt>
713        <trkpt lat="53.78873880" lon="-7.65247030"><ele>73.3</ele><time>2017-12-01T14:16:02Z</time></trkpt>
714        <trkpt lat="53.78695980" lon="-7.65382750"><ele>72.7</ele><time>2017-12-01T14:16:11Z</time></trkpt>
715        <trkpt lat="53.78519750" lon="-7.65561110"><ele>72.6</ele><time>2017-12-01T14:16:21Z</time></trkpt>
716        <trkpt lat="53.78438400" lon="-7.65618340"><ele>72.1</ele><time>2017-12-01T14:16:32Z</time></trkpt>
717        <trkpt lat="53.78426980" lon="-7.65619440"><ele>70.1</ele><time>2017-12-01T14:21:21Z</time></trkpt>
718        <trkpt lat="53.78382780" lon="-7.65632210"><ele>68.7</ele><time>2017-12-01T14:21:31Z</time></trkpt>
719        <trkpt lat="53.78372940" lon="-7.65634870"><ele>67.8</ele><time>2017-12-01T14:21:41Z</time></trkpt>
720        <trkpt lat="53.78347420" lon="-7.65655120"><ele>66.2</ele><time>2017-12-01T14:22:01Z</time></trkpt>
721        <trkpt lat="53.78237350" lon="-7.65737280"><ele>65.0</ele><time>2017-12-01T14:22:11Z</time></trkpt>
722        <trkpt lat="53.78178120" lon="-7.65819230"><ele>65.0</ele><time>2017-12-01T14:22:22Z</time></trkpt>
723        <trkpt lat="53.78224550" lon="-7.65998130"><ele>65.6</ele><time>2017-12-01T14:22:31Z</time></trkpt>
724        <trkpt lat="53.78335270" lon="-7.66178410"><ele>66.7</ele><time>2017-12-01T14:22:41Z</time></trkpt>
725        <trkpt lat="53.78489670" lon="-7.66283600"><ele>69.4</ele><time>2017-12-01T14:22:52Z</time></trkpt>
726        <trkpt lat="53.78608920" lon="-7.66418700"><ele>72.6</ele><time>2017-12-01T14:23:01Z</time></trkpt>
727        <trkpt lat="53.78696740" lon="-7.66672380"><ele>76.1</ele><time>2017-12-01T14:23:11Z</time></trkpt>
728        <trkpt lat="53.78953040" lon="-7.67417630"><ele>80.4</ele><time>2017-12-01T14:23:51Z</time></trkpt>
729        <trkpt lat="53.79015630" lon="-7.67608600"><ele>84.4</ele><time>2017-12-01T14:24:01Z</time></trkpt>
730        <trkpt lat="53.79089220" lon="-7.67787950"><ele>88.5</ele><time>2017-12-01T14:24:11Z</time></trkpt>
731        <trkpt lat="53.79207440" lon="-7.67898740"><ele>92.5</ele><time>2017-12-01T14:24:21Z</time></trkpt>
732        <trkpt lat="53.79316480" lon="-7.67984780"><ele>96.5</ele><time>2017-12-01T14:24:31Z</time></trkpt>
733        <trkpt lat="53.79414460" lon="-7.68102620"><ele>100.0</ele><time>2017-12-01T14:24:41Z</time></trkpt>
734        <trkpt lat="53.79507330" lon="-7.68225140"><ele>102.6</ele><time>2017-12-01T14:24:52Z</time></trkpt>
735        <trkpt lat="53.79495420" lon="-7.68327120"><ele>103.5</ele><time>2017-12-01T14:25:01Z</time></trkpt>
736        <trkpt lat="53.79446850" lon="-7.68455170"><ele>102.9</ele><time>2017-12-01T14:25:11Z</time></trkpt>
737        <trkpt lat="53.79368200" lon="-7.68510220"><ele>101.6</ele><time>2017-12-01T14:25:21Z</time></trkpt>
738        <trkpt lat="53.79328730" lon="-7.68585450"><ele>100.6</ele><time>2017-12-01T14:25:31Z</time></trkpt>
739        <trkpt lat="53.79351140" lon="-7.68729750"><ele>100.0</ele><time>2017-12-01T14:25:41Z</time></trkpt>
740        <trkpt lat="53.79324630" lon="-7.68878820"><ele>99.6</ele><time>2017-12-01T14:25:51Z</time></trkpt>
741        <trkpt lat="53.79265690" lon="-7.69063670"><ele>99.1</ele><time>2017-12-01T14:26:01Z</time></trkpt>
742        <trkpt lat="53.79195420" lon="-7.69202920"><ele>98.0</ele><time>2017-12-01T14:26:12Z</time></trkpt>
743        <trkpt lat="53.79124560" lon="-7.69320130"><ele>95.9</ele><time>2017-12-01T14:26:21Z</time></trkpt>
744        <trkpt lat="53.79044830" lon="-7.69428280"><ele>94.1</ele><time>2017-12-01T14:26:31Z</time></trkpt>
745        <trkpt lat="53.78980790" lon="-7.69558220"><ele>92.9</ele><time>2017-12-01T14:26:41Z</time></trkpt>
746        <trkpt lat="53.78985890" lon="-7.69603260"><ele>92.2</ele><time>2017-12-01T14:26:51Z</time></trkpt>
747        <trkpt lat="53.78979910" lon="-7.69622980"><ele>91.3</ele><time>2017-12-01T14:27:01Z</time></trkpt>
748        <trkpt lat="53.78989970" lon="-7.69596350"><ele>90.7</ele><time>2017-12-01T14:30:31Z</time></trkpt>
749        <trkpt lat="53.78964230" lon="-7.69590500"><ele>91.7</ele><time>2017-12-01T14:30:51Z</time></trkpt>
750        <trkpt lat="53.78920360" lon="-7.69698990"><ele>92.1</ele><time>2017-12-01T14:31:01Z</time></trkpt>
751        <trkpt lat="53.78901290" lon="-7.69743300"><ele>92.4</ele><time>2017-12-01T14:31:11Z</time></trkpt>
752        <trkpt lat="53.78927790" lon="-7.69730450"><ele>92.8</ele><time>2017-12-01T14:31:32Z</time></trkpt>
753        <trkpt lat="53.78936700" lon="-7.69726180"><ele>93.4</ele><time>2017-12-01T14:33:31Z</time></trkpt>
754        <trkpt lat="53.78927180" lon="-7.69716250"><ele>93.1</ele><time>2017-12-01T14:35:41Z</time></trkpt>
755        <trkpt lat="53.78950940" lon="-7.69636370"><ele>92.9</ele><time>2017-12-01T14:36:01Z</time></trkpt>
756        <trkpt lat="53.78978130" lon="-7.69561260"><ele>93.2</ele><time>2017-12-01T14:36:11Z</time></trkpt>
757        <trkpt lat="53.78979100" lon="-7.69581140"><ele>94.2</ele><time>2017-12-01T14:36:21Z</time></trkpt>
758        <trkpt lat="53.78961430" lon="-7.69618840"><ele>95.8</ele><time>2017-12-01T14:37:21Z</time></trkpt>
759        <trkpt lat="53.78894800" lon="-7.69756140"><ele>95.4</ele><time>2017-12-01T14:37:31Z</time></trkpt>
760        <trkpt lat="53.78815470" lon="-7.69909280"><ele>95.3</ele><time>2017-12-01T14:37:41Z</time></trkpt>
761        <trkpt lat="53.78832240" lon="-7.70006500"><ele>94.3</ele><time>2017-12-01T14:37:51Z</time></trkpt>
762        <trkpt lat="53.78551090" lon="-7.70440010"><ele>92.6</ele><time>2017-12-01T14:38:41Z</time></trkpt>
763        <trkpt lat="53.78318030" lon="-7.70472100"><ele>90.1</ele><time>2017-12-01T14:38:51Z</time></trkpt>
764        <trkpt lat="53.78146840" lon="-7.70507090"><ele>87.4</ele><time>2017-12-01T14:39:01Z</time></trkpt>
765        <trkpt lat="53.78149440" lon="-7.70556680"><ele>84.0</ele><time>2017-12-01T14:39:11Z</time></trkpt>
766        <trkpt lat="53.78066770" lon="-7.70700860"><ele>82.2</ele><time>2017-12-01T14:39:22Z</time></trkpt>
767        <trkpt lat="53.77996020" lon="-7.71000110"><ele>81.3</ele><time>2017-12-01T14:39:32Z</time></trkpt>
768        <trkpt lat="53.77898530" lon="-7.71392040"><ele>81.0</ele><time>2017-12-01T14:39:44Z</time></trkpt>
769        <trkpt lat="53.77810980" lon="-7.71746930"><ele>81.8</ele><time>2017-12-01T14:39:54Z</time></trkpt>
770        <trkpt lat="53.77791700" lon="-7.71915930"><ele>83.6</ele><time>2017-12-01T14:40:04Z</time></trkpt>
771        <trkpt lat="53.77866320" lon="-7.72031480"><ele>84.0</ele><time>2017-12-01T14:40:13Z</time></trkpt>
772        <trkpt lat="53.77979450" lon="-7.72218470"><ele>85.2</ele><time>2017-12-01T14:40:23Z</time></trkpt>
773        <trkpt lat="53.78101420" lon="-7.72423530"><ele>86.6</ele><time>2017-12-01T14:40:34Z</time></trkpt>
774        <trkpt lat="53.78156580" lon="-7.72520380"><ele>90.2</ele><time>2017-12-01T14:40:43Z</time></trkpt>
775        <trkpt lat="53.78217160" lon="-7.72389440"><ele>92.8</ele><time>2017-12-01T14:40:53Z</time></trkpt>
776        <trkpt lat="53.78304870" lon="-7.72330420"><ele>93.6</ele><time>2017-12-01T14:41:04Z</time></trkpt>
777        <trkpt lat="53.78327860" lon="-7.72372030"><ele>92.7</ele><time>2017-12-01T14:41:14Z</time></trkpt>
778        <trkpt lat="53.78291710" lon="-7.72314430"><ele>90.8</ele><time>2017-12-01T14:43:35Z</time></trkpt>
779        <trkpt lat="53.78218080" lon="-7.72391290"><ele>85.8</ele><time>2017-12-01T14:43:44Z</time></trkpt>
780        <trkpt lat="53.77816320" lon="-7.71943000"><ele>80.8</ele><time>2017-12-01T14:44:24Z</time></trkpt>
781        <trkpt lat="53.77764810" lon="-7.71927640"><ele>77.5</ele><time>2017-12-01T14:44:35Z</time></trkpt>
782        <trkpt lat="53.77730860" lon="-7.72121280"><ele>74.6</ele><time>2017-12-01T14:44:44Z</time></trkpt>
783        <trkpt lat="53.77658940" lon="-7.72460220"><ele>71.5</ele><time>2017-12-01T14:44:54Z</time></trkpt>
784        <trkpt lat="53.77573440" lon="-7.72824060"><ele>69.2</ele><time>2017-12-01T14:45:04Z</time></trkpt>
785        <trkpt lat="53.77464170" lon="-7.73207550"><ele>67.3</ele><time>2017-12-01T14:45:14Z</time></trkpt>
786        <trkpt lat="53.77236970" lon="-7.73999350"><ele>66.8</ele><time>2017-12-01T14:45:34Z</time></trkpt>
787        <trkpt lat="53.77127670" lon="-7.74378850"><ele>67.0</ele><time>2017-12-01T14:45:44Z</time></trkpt>
788        <trkpt lat="53.77047810" lon="-7.74619600"><ele>67.7</ele><time>2017-12-01T14:45:54Z</time></trkpt>
789        <trkpt lat="53.76934880" lon="-7.74519880"><ele>67.8</ele><time>2017-12-01T14:46:03Z</time></trkpt>
790        <trkpt lat="53.76747940" lon="-7.74395590"><ele>67.7</ele><time>2017-12-01T14:46:13Z</time></trkpt>
791        <trkpt lat="53.76545910" lon="-7.74517180"><ele>66.2</ele><time>2017-12-01T14:46:24Z</time></trkpt>
792        <trkpt lat="53.76349870" lon="-7.74583310"><ele>64.3</ele><time>2017-12-01T14:46:34Z</time></trkpt>
793        <trkpt lat="53.76170750" lon="-7.74557990"><ele>62.3</ele><time>2017-12-01T14:46:44Z</time></trkpt>
794        <trkpt lat="53.76057470" lon="-7.74528640"><ele>61.7</ele><time>2017-12-01T14:46:54Z</time></trkpt>
795        <trkpt lat="53.75881280" lon="-7.74562020"><ele>61.0</ele><time>2017-12-01T14:47:04Z</time></trkpt>
796        <trkpt lat="53.75725880" lon="-7.74637650"><ele>60.4</ele><time>2017-12-01T14:47:14Z</time></trkpt>
797        <trkpt lat="53.75600620" lon="-7.74732240"><ele>59.0</ele><time>2017-12-01T14:47:24Z</time></trkpt>
798        <trkpt lat="53.75474890" lon="-7.74752200"><ele>57.8</ele><time>2017-12-01T14:47:34Z</time></trkpt>
799        <trkpt lat="53.75343700" lon="-7.74852010"><ele>56.6</ele><time>2017-12-01T14:47:44Z</time></trkpt>
800        <trkpt lat="53.75202220" lon="-7.74958110"><ele>56.6</ele><time>2017-12-01T14:47:54Z</time></trkpt>
801        <trkpt lat="53.75054600" lon="-7.75011460"><ele>57.8</ele><time>2017-12-01T14:48:04Z</time></trkpt>
802        <trkpt lat="53.74884380" lon="-7.75088210"><ele>60.4</ele><time>2017-12-01T14:48:14Z</time></trkpt>
803        <trkpt lat="53.74722470" lon="-7.75171430"><ele>62.4</ele><time>2017-12-01T14:48:24Z</time></trkpt>
804        <trkpt lat="53.74491490" lon="-7.75350240"><ele>62.7</ele><time>2017-12-01T14:48:44Z</time></trkpt>
805        <trkpt lat="53.74465060" lon="-7.75454100"><ele>61.8</ele><time>2017-12-01T14:48:54Z</time></trkpt>
806        <trkpt lat="53.74408090" lon="-7.75688630"><ele>59.8</ele><time>2017-12-01T14:49:04Z</time></trkpt>
807        <trkpt lat="53.74305630" lon="-7.76041950"><ele>56.7</ele><time>2017-12-01T14:49:14Z</time></trkpt>
808        <trkpt lat="53.74195000" lon="-7.76421730"><ele>54.9</ele><time>2017-12-01T14:49:24Z</time></trkpt>
809        <trkpt lat="53.74134130" lon="-7.76727660"><ele>54.7</ele><time>2017-12-01T14:49:34Z</time></trkpt>
810        <trkpt lat="53.74084110" lon="-7.77086460"><ele>55.1</ele><time>2017-12-01T14:49:44Z</time></trkpt>
811        <trkpt lat="53.74018830" lon="-7.77467700"><ele>56.5</ele><time>2017-12-01T14:49:54Z</time></trkpt>
812        <trkpt lat="53.73889720" lon="-7.77702870"><ele>57.5</ele><time>2017-12-01T14:50:04Z</time></trkpt>
813        <trkpt lat="53.73808780" lon="-7.77805730"><ele>57.6</ele><time>2017-12-01T14:50:14Z</time></trkpt>
814        <trkpt lat="53.73700400" lon="-7.77934170"><ele>57.1</ele><time>2017-12-01T14:50:24Z</time></trkpt>
815        <trkpt lat="53.73538720" lon="-7.78001290"><ele>56.0</ele><time>2017-12-01T14:50:34Z</time></trkpt>
816        <trkpt lat="53.73376680" lon="-7.78013310"><ele>53.9</ele><time>2017-12-01T14:50:44Z</time></trkpt>
817        <trkpt lat="53.73250400" lon="-7.78060280"><ele>52.7</ele><time>2017-12-01T14:50:54Z</time></trkpt>
818        <trkpt lat="53.73149380" lon="-7.78210840"><ele>52.1</ele><time>2017-12-01T14:51:04Z</time></trkpt>
819        <trkpt lat="53.73067590" lon="-7.78428700"><ele>51.5</ele><time>2017-12-01T14:51:14Z</time></trkpt>
820        <trkpt lat="53.73178340" lon="-7.79236040"><ele>50.5</ele><time>2017-12-01T14:51:54Z</time></trkpt>
821        <trkpt lat="53.73111890" lon="-7.79394990"><ele>51.1</ele><time>2017-12-01T14:52:04Z</time></trkpt>
822        <trkpt lat="53.73058530" lon="-7.79524830"><ele>51.3</ele><time>2017-12-01T14:52:14Z</time></trkpt>
823        <trkpt lat="53.73035240" lon="-7.79650020"><ele>51.1</ele><time>2017-12-01T14:52:24Z</time></trkpt>
824        <trkpt lat="53.73017950" lon="-7.79828180"><ele>50.5</ele><time>2017-12-01T14:52:34Z</time></trkpt>
825        <trkpt lat="53.73003660" lon="-7.79973130"><ele>49.9</ele><time>2017-12-01T14:52:43Z</time></trkpt>
826        <trkpt lat="53.73006490" lon="-7.80013730"><ele>49.4</ele><time>2017-12-01T14:53:44Z</time></trkpt>
827        <trkpt lat="53.72995800" lon="-7.80035240"><ele>49.7</ele><time>2017-12-01T14:54:03Z</time></trkpt>
828        <trkpt lat="53.73004940" lon="-7.80055100"><ele>49.8</ele><time>2017-12-01T14:54:23Z</time></trkpt>
829        <trkpt lat="53.72997710" lon="-7.80066890"><ele>48.8</ele><time>2017-12-01T14:54:44Z</time></trkpt>
830        <trkpt lat="53.72989330" lon="-7.80076600"><ele>49.7</ele><time>2017-12-01T14:54:54Z</time></trkpt>
831        <trkpt lat="53.72985970" lon="-7.80100960"><ele>51.0</ele><time>2017-12-01T14:55:20Z</time></trkpt>
832        <trkpt lat="53.72980440" lon="-7.80113160"><ele>53.4</ele><time>2017-12-01T14:56:14Z</time></trkpt>
833        <trkpt lat="53.72983150" lon="-7.80146890"><ele>55.9</ele><time>2017-12-01T14:56:34Z</time></trkpt>
834        <trkpt lat="53.72955040" lon="-7.80176580"><ele>58.9</ele><time>2017-12-01T14:56:49Z</time></trkpt>
835        <trkpt lat="53.72934960" lon="-7.80171160"><ele>60.3</ele><time>2017-12-01T14:57:04Z</time></trkpt>
836        <trkpt lat="53.72906240" lon="-7.80150460"><ele>59.8</ele><time>2017-12-01T14:57:24Z</time></trkpt>
837        <trkpt lat="53.72882870" lon="-7.80178850"><ele>57.6</ele><time>2017-12-01T14:57:34Z</time></trkpt>
838        <trkpt lat="53.72866800" lon="-7.80335500"><ele>54.4</ele><time>2017-12-01T14:57:49Z</time></trkpt>
839        <trkpt lat="53.72870950" lon="-7.80360220"><ele>52.7</ele><time>2017-12-01T14:57:53Z</time></trkpt>
840        <trkpt lat="53.72840850" lon="-7.80469020"><ele>50.6</ele><time>2017-12-01T14:58:04Z</time></trkpt>
841        <trkpt lat="53.72776270" lon="-7.80672560"><ele>49.9</ele><time>2017-12-01T14:58:14Z</time></trkpt>
842        <trkpt lat="53.72725030" lon="-7.80714720"><ele>49.1</ele><time>2017-12-01T14:58:24Z</time></trkpt>
843        <trkpt lat="53.72616930" lon="-7.80679410"><ele>48.9</ele><time>2017-12-01T14:58:52Z</time></trkpt>
844        <trkpt lat="53.72616210" lon="-7.80662000"><ele>48.7</ele><time>2017-12-01T14:59:33Z</time></trkpt>
845        <trkpt lat="53.72621070" lon="-7.80675460"><ele>49.9</ele><time>2017-12-01T15:09:34Z</time></trkpt>
846        <trkpt lat="53.72637020" lon="-7.80654460"><ele>51.0</ele><time>2017-12-01T15:12:04Z</time></trkpt>
847        <trkpt lat="53.72635290" lon="-7.80603620"><ele>51.6</ele><time>2017-12-01T15:12:14Z</time></trkpt>
848        <trkpt lat="53.72567360" lon="-7.80515780"><ele>52.1</ele><time>2017-12-01T15:12:24Z</time></trkpt>
849        <trkpt lat="53.72526560" lon="-7.80453550"><ele>52.9</ele><time>2017-12-01T15:12:34Z</time></trkpt>
850        <trkpt lat="53.72512060" lon="-7.80437110"><ele>53.9</ele><time>2017-12-01T15:12:44Z</time></trkpt>
851        <trkpt lat="53.72526850" lon="-7.80390480"><ele>54.6</ele><time>2017-12-01T15:12:54Z</time></trkpt>
852        <trkpt lat="53.72597010" lon="-7.80268130"><ele>55.4</ele><time>2017-12-01T15:13:05Z</time></trkpt>
853        <trkpt lat="53.72629840" lon="-7.80210710"><ele>56.2</ele><time>2017-12-01T15:13:14Z</time></trkpt>
854        <trkpt lat="53.72585430" lon="-7.80165440"><ele>57.1</ele><time>2017-12-01T15:13:24Z</time></trkpt>
855        <trkpt lat="53.72539100" lon="-7.80117880"><ele>57.7</ele><time>2017-12-01T15:13:34Z</time></trkpt>
856        <trkpt lat="53.72535780" lon="-7.80057890"><ele>58.0</ele><time>2017-12-01T15:13:54Z</time></trkpt>
857        <trkpt lat="53.72548160" lon="-7.79925660"><ele>58.6</ele><time>2017-12-01T15:14:19Z</time></trkpt>
858        <trkpt lat="53.72570960" lon="-7.79883170"><ele>59.4</ele><time>2017-12-01T15:14:31Z</time></trkpt>
859        <trkpt lat="53.72548640" lon="-7.79847010"><ele>59.0</ele><time>2017-12-01T15:14:52Z</time></trkpt>
860        <trkpt lat="53.72494570" lon="-7.79764490"><ele>57.8</ele><time>2017-12-01T15:15:01Z</time></trkpt>
861        <trkpt lat="53.72414370" lon="-7.79676770"><ele>56.8</ele><time>2017-12-01T15:15:11Z</time></trkpt>
862        <trkpt lat="53.72338970" lon="-7.79565510"><ele>56.6</ele><time>2017-12-01T15:15:22Z</time></trkpt>
863        <trkpt lat="53.72293570" lon="-7.79468340"><ele>56.4</ele><time>2017-12-01T15:15:32Z</time></trkpt>
864        <trkpt lat="53.72327950" lon="-7.79394400"><ele>56.5</ele><time>2017-12-01T15:15:41Z</time></trkpt>
865        <trkpt lat="53.72370680" lon="-7.79307640"><ele>56.4</ele><time>2017-12-01T15:15:52Z</time></trkpt>
866        <trkpt lat="53.72379740" lon="-7.79288810"><ele>56.3</ele><time>2017-12-01T15:16:01Z</time></trkpt>
867        <trkpt lat="53.72405990" lon="-7.79196320"><ele>56.2</ele><time>2017-12-01T15:16:41Z</time></trkpt>
868        <trkpt lat="53.72445780" lon="-7.79091800"><ele>56.2</ele><time>2017-12-01T15:16:51Z</time></trkpt>
869        <trkpt lat="53.72452690" lon="-7.78999250"><ele>55.8</ele><time>2017-12-01T15:17:01Z</time></trkpt>
870        <trkpt lat="53.72417400" lon="-7.78919860"><ele>55.7</ele><time>2017-12-01T15:17:12Z</time></trkpt>
871        <trkpt lat="53.72453430" lon="-7.78846970"><ele>55.1</ele><time>2017-12-01T15:17:22Z</time></trkpt>
872        <trkpt lat="53.72512170" lon="-7.78817460"><ele>53.6</ele><time>2017-12-01T15:17:41Z</time></trkpt>
873        <trkpt lat="53.72508510" lon="-7.78801080"><ele>52.5</ele><time>2017-12-01T15:18:11Z</time></trkpt>
874        <trkpt lat="53.72503810" lon="-7.78731880"><ele>51.8</ele><time>2017-12-01T15:18:21Z</time></trkpt>
875        <trkpt lat="53.72465140" lon="-7.78686860"><ele>51.8</ele><time>2017-12-01T15:18:31Z</time></trkpt>
876        <trkpt lat="53.72425960" lon="-7.78696620"><ele>49.5</ele><time>2017-12-01T15:18:41Z</time></trkpt>
877        <trkpt lat="53.72450340" lon="-7.78687870"><ele>51.9</ele><time>2017-12-01T15:19:01Z</time></trkpt>
878        <trkpt lat="53.72449470" lon="-7.78672080"><ele>52.2</ele><time>2017-12-01T15:19:50Z</time></trkpt>
879        <trkpt lat="53.72446380" lon="-7.78651740"><ele>53.8</ele><time>2017-12-01T15:20:10Z</time></trkpt>
880        </trkseg>
881</trk>
882</gpx>